PORTS® Data Listing: 8635750 Lewisetta, VA

CO-OPS RAW PORTS DATA

************************      PRELIMINARY DATA      ************************** 

     THIS RAW DATA HAS NOT BEEN SUBJECT TO THE NATIONAL OCEAN SERVICE'S        
     QUALITY CONTROL OR QUALITY ASSURANCE PROCEDURES AND DOES NOT MEET         
     THE CRITERIA AND STANDARDS OF OFFICIAL NATIONAL OCEAN SERVICE             
     DATA.  IT IS RELEASED FOR LIMITED PUBLIC USE AS PRELIMINARY DATA TO       
     BE USED ONLY WITH APPROPRIATE CAUTION.                                    

************************      PRELIMINARY DATA      ************************** 


       CD   -   Calendar date
       T    -   Time
       TZ   -   Timezone
       PW   -   Predicted water level (feet above MLLW)
       OW   -   Observed water level (feet above MLLW)
       WS   -   Wind speed (knots)
       WD   -   Wind direction (degrees true)
       WG   -   Wind gust (knots)
       AT   -   Air temperature (degrees farenheit)
       WT   -   Water temperature (degrees farenheit)
       AP   -   Air pressure (millibars)
       SA   -   Salinty (PSU - Practical Salinity Units)
       SG   -   Specific gravity
       RH   -   Relative humidity
       AG   -   Air gap (feet)
       VI   -   Visibility (nautical miles)

       ** NOTE **
       A variable that has its data fields filled with "9"s, indicates that
       data was not collected for that sample period.
       **********


STATION NAME: Lewisetta (8635750)
****************************************************************************************************
    CD       T    TZ    PW     OW    WS   WD   WG    AT    WT    AP    SA    SG     RH    AG   VI
****************************************************************************************************
2019/11/11 16:36 EST    0.51   1.05    7  207    8  64.9  54.1 1014.3 13.6  1.011 -99.9 -99.99 -9.99
2019/11/11 16:42 EST    0.48   1.02    7  210    8  64.9  54.0 1014.4 13.8  1.011 -99.9 -99.99 -9.99
2019/11/11 16:48 EST    0.45   0.99    8  211    8  64.2  54.0 1014.4 13.7  1.011 -99.9 -99.99 -9.99
2019/11/11 16:54 EST    0.43   0.96    7  207    8  64.4  54.0 1014.3 13.8  1.011 -99.9 -99.99 -9.99
2019/11/11 17:00 EST    0.40   0.94    7  209    8  64.4  54.0 1014.4 13.7  1.011 -99.9 -99.99 -9.99
2019/11/11 17:06 EST    0.38   0.92    7  206    9  63.9  54.0 1014.3 13.7  1.011 -99.9 -99.99 -9.99
2019/11/11 17:12 EST    0.35   0.90    7  201    7  63.7  54.0 1014.2 13.7  1.011 -99.9 -99.99 -9.99
2019/11/11 17:18 EST    0.33   0.88    8  198    9  63.1  54.0 1014.2 13.7  1.011 -99.9 -99.99 -9.99
2019/11/11 17:24 EST    0.31   0.85    8  194    9  63.0  53.8 1014.2 13.7  1.011 -99.9 -99.99 -9.99
2019/11/11 17:30 EST    0.29   0.83    8  189   10  62.1  53.8 1014.1 13.7  1.011 -99.9 -99.99 -9.99
2019/11/11 17:36 EST    0.27   0.81    9  191   10  62.1  53.8 1014.0 13.7  1.011 -99.9 -99.99 -9.99
2019/11/11 17:42 EST    0.25   0.79    9  190   10  61.5  53.8 1013.9 13.7  1.011 -99.9 -99.99 -9.99
2019/11/11 17:48 EST    0.23   0.77    9  193   11  61.3  53.8 1013.8 13.7  1.011 -99.9 -99.99 -9.99
2019/11/11 17:54 EST    0.22   0.75   11  194   13  61.9  54.0 1013.7 13.7  1.011 -99.9 -99.99 -9.99
2019/11/11 18:00 EST    0.20   0.73   12  200   14  61.9  54.0 1013.7 13.8  1.011 -99.9 -99.99 -9.99
2019/11/11 18:06 EST    0.19   0.71   11  200   14  61.5  54.0 1013.7 13.6  1.011 -99.9 -99.99 -9.99
2019/11/11 18:12 EST    0.18   0.69   11  201   13  61.5  53.6 1013.7 13.5  1.011 -99.9 -99.99 -9.99
2019/11/11 18:18 EST    0.17   0.68   12  199   15  61.7  53.2 1013.6 13.4  1.011 -99.9 -99.99 -9.99
2019/11/11 18:24 EST    0.16   0.66   12  195   15  61.5  53.4 1013.2 13.5  1.011 -99.9 -99.99 -9.99
2019/11/11 18:30 EST    0.15   0.65   12  184   14  61.0  53.1 1013.0 13.4  1.011 -99.9 -99.99 -9.99
2019/11/11 18:36 EST    0.15   0.64   13  189   15  61.2  53.1 1012.8 13.4  1.011 -99.9 -99.99 -9.99
2019/11/11 18:42 EST    0.14   0.63   12  191   16  61.0  52.9 1012.6 13.4  1.011 -99.9 -99.99 -9.99
2019/11/11 18:48 EST    0.14   0.62   12  201   15  60.8  52.9 1012.7 13.4  1.011 -99.9 -99.99 -9.99
2019/11/11 18:54 EST    0.14   0.61   12  204   14  61.0  52.9 1012.8 13.4  1.011 -99.9 -99.99 -9.99
2019/11/11 19:00 EST    0.14   0.58   13  215   19  61.0  52.9 1013.0 13.4  1.011 -99.9 -99.99 -9.99
2019/11/11 19:06 EST    0.14   0.57   12  214   16  61.0  52.9 1013.1 13.4  1.011 -99.9 -99.99 -9.99
2019/11/11 19:12 EST    0.15   0.59   11  216   14  61.0  52.9 1013.2 13.5  1.011 -99.9 -99.99 -9.99
2019/11/11 19:18 EST    0.16   0.60   12  220   16  60.8  53.1 1013.4 13.4  1.011 -99.9 -99.99 -9.99
2019/11/11 19:24 EST    0.16   0.61   12  219   16  60.6  53.2 1013.3 13.5  1.011 -99.9 -99.99 -9.99
2019/11/11 19:30 EST    0.18   0.62   12  219   15  60.6  53.4 1013.3 13.6  1.011 -99.9 -99.99 -9.99
2019/11/11 19:36 EST    0.19   0.63   12  219   15  60.6  53.4 1013.3 13.6  1.011 -99.9 -99.99 -9.99
2019/11/11 19:42 EST    0.20   0.64   13  220   16  60.8  53.4 1013.3 13.6  1.011 -99.9 -99.99 -9.99
2019/11/11 19:48 EST    0.22   0.66   12  213   16  60.6  53.4 1013.1 13.7  1.011 -99.9 -99.99 -9.99
2019/11/11 19:54 EST    0.24   0.68   12  210   15  60.6  53.4 1013.0 13.7  1.011 -99.9 -99.99 -9.99
2019/11/11 20:00 EST    0.26   0.70   13  213   16  60.6  53.4 1012.9 13.7  1.011 -99.9 -99.99 -9.99
2019/11/11 20:06 EST    0.28   0.72   13  223   16  60.6  53.4 1013.0 13.7  1.011 -99.9 -99.99 -9.99
2019/11/11 20:12 EST    0.30   0.75   12  220   16  60.4  53.4 1013.1 13.7  1.011 -99.9 -99.99 -9.99
2019/11/11 20:18 EST    0.32   0.78   13  223   17  60.4  53.4 1013.1 13.7  1.011 -99.9 -99.99 -9.99
2019/11/11 20:24 EST    0.35   0.80   13  220   18  60.4  53.4 1013.1 13.6  1.011 -99.9 -99.99 -9.99
2019/11/11 20:30 EST    0.38   0.84   13  222   19  60.4  53.4 1013.0 13.6  1.011 -99.9 -99.99 -9.99
2019/11/11 20:36 EST    0.40   0.88   13  222   15  60.1  53.2 1013.0 13.6  1.011 -99.9 -99.99 -9.99
2019/11/11 20:42 EST    0.43   0.91   12  218   15  59.9  53.2 1012.9 13.5  1.011 -99.9 -99.99 -9.99
2019/11/11 20:48 EST    0.46   0.94   12  221   14  59.9  53.2 1012.9 13.5  1.011 -99.9 -99.99 -9.99
2019/11/11 20:54 EST    0.49   0.96   13  223   16  59.9  53.2 1012.9 13.6  1.011 -99.9 -99.99 -9.99
2019/11/11 21:00 EST    0.52   0.99   13  223   17  59.9  53.2 1012.9 13.6  1.011 -99.9 -99.99 -9.99
2019/11/11 21:06 EST    0.55   1.03   13  220   19  59.9  53.2 1012.9 13.6  1.011 -99.9 -99.99 -9.99
2019/11/11 21:12 EST    0.58   1.06   14  221   18  60.1  53.2 1012.9 13.7  1.011 -99.9 -99.99 -9.99
2019/11/11 21:18 EST    0.62   1.10   14  222   19  60.3  53.2 1012.8 13.5  1.011 -99.9 -99.99 -9.99
2019/11/11 21:24 EST    0.65   1.14   14  228   16  60.3  53.4 1012.9 13.6  1.011 -99.9 -99.99 -9.99
2019/11/11 21:30 EST    0.68   1.16   13  228   15  60.1  53.4 1012.9 13.7  1.011 -99.9 -99.99 -9.99
2019/11/11 21:36 EST    0.71   1.19   12  228   16  60.1  53.4 1012.9 13.6  1.011 -99.9 -99.99 -9.99
2019/11/11 21:42 EST    0.74   1.21   13  225   17  60.1  53.2 1012.8 13.7  1.011 -99.9 -99.99 -9.99
2019/11/11 21:48 EST    0.77   1.23   14  223   16  60.1  53.4 1012.6 13.6  1.011 -99.9 -99.99 -9.99
2019/11/11 21:54 EST    0.81   1.27   14  222   19  60.1  53.4 1012.5 13.6  1.011 -99.9 -99.99 -9.99
2019/11/11 22:00 EST    0.84   1.31   14  221   16  60.1  53.4 1012.4 13.6  1.011 -99.9 -99.99 -9.99
2019/11/11 22:06 EST    0.87   1.34   12  224   15  59.9  53.4 1012.4 13.7  1.011 -99.9 -99.99 -9.99
2019/11/11 22:12 EST    0.89   1.37   13  225   17  60.1  53.4 1012.5 13.7  1.011 -99.9 -99.99 -9.99
2019/11/11 22:18 EST    0.92   1.40   11  227   13  59.9  53.4 1012.4 13.7  1.011 -99.9 -99.99 -9.99
2019/11/11 22:24 EST    0.95   1.43   13  223   19  59.9  53.4 1012.3 13.7  1.011 -99.9 -99.99 -9.99
2019/11/11 22:30 EST    0.98   1.46   15  222   19  60.1  53.4 1012.2 13.7  1.011 -99.9 -99.99 -9.99
2019/11/11 22:36 EST    1.00   1.49   14  230   17  60.1  53.4 1012.2 13.7  1.011 -99.9 -99.99 -9.99
2019/11/11 22:42 EST    1.03   1.53   14  222   17  60.3  53.4 1012.0 13.7  1.011 -99.9 -99.99 -9.99
2019/11/11 22:48 EST    1.05   1.55   13  228   17  60.1  53.4 1011.9 13.7  1.011 -99.9 -99.99 -9.99
2019/11/11 22:54 EST    1.08   1.56   15  227   18  60.3  53.4 1011.7 13.7  1.011 -99.9 -99.99 -9.99
2019/11/11 23:00 EST    1.10   1.57   16  226   19  60.4  53.4 1011.6 13.7  1.011 -99.9 -99.99 -9.99
2019/11/11 23:06 EST    1.12   1.58   15  226   20  60.4  53.4 1011.5 13.7  1.011 -99.9 -99.99 -9.99
2019/11/11 23:12 EST    1.14   1.60   16  226   22  60.4  53.2 1011.5 13.7  1.011 -99.9 -99.99 -9.99
2019/11/11 23:18 EST    1.16   1.62   15  231   20  60.4  53.2 1011.5 13.7  1.011 -99.9 -99.99 -9.99
2019/11/11 23:24 EST    1.18   1.63   16  226   21  60.4  53.2 1011.4 13.7  1.011 -99.9 -99.99 -9.99
2019/11/11 23:30 EST    1.19   1.64   16  230   21  60.6  53.2 1011.3 13.7  1.011 -99.9 -99.99 -9.99
2019/11/11 23:36 EST    1.21   1.66   16  231   20  60.3  53.2 1011.2 13.7  1.011 -99.9 -99.99 -9.99
2019/11/11 23:42 EST    1.22   1.67   15  232   18  60.1  53.2 1011.3 13.7  1.011 -99.9 -99.99 -9.99
2019/11/11 23:48 EST    1.24   1.68   18  233   26  60.3  53.2 1011.2 13.6  1.011 -99.9 -99.99 -9.99
2019/11/11 23:54 EST    1.25   1.70   17  229   23  60.3  53.2 1011.1 13.6  1.011 -99.9 -99.99 -9.99
2019/11/12 00:00 EST    1.26   1.72   18  227   24  60.1  53.2 1011.0 13.6  1.011 -99.9 -99.99 -9.99
2019/11/12 00:06 EST    1.27   1.74   15  232   21  59.9  53.2 1011.1 13.7  1.011 -99.9 -99.99 -9.99
2019/11/12 00:12 EST    1.28   1.75   18  229   25  60.1  53.2 1010.9 13.7  1.011 -99.9 -99.99 -9.99
2019/11/12 00:18 EST    1.28   1.75   17  228   20  59.9  53.2 1010.8 13.7  1.011 -99.9 -99.99 -9.99
2019/11/12 00:24 EST    1.29   1.75   18  224   22  59.7  53.2 1010.8 13.7  1.011 -99.9 -99.99 -9.99
2019/11/12 00:30 EST    1.30   1.75   17  231   21  59.7  53.2 1010.8 13.7  1.011 -99.9 -99.99 -9.99
2019/11/12 00:36 EST    1.30   1.76   16  232   21  59.5  53.2 1010.7 13.7  1.011 -99.9 -99.99 -9.99
2019/11/12 00:42 EST    1.30   1.77   16  230   19  59.4  53.2 1010.6 13.7  1.011 -99.9 -99.99 -9.99
2019/11/12 00:48 EST    1.30   1.77   16  231   22  59.4  53.2 1010.5 13.7  1.011 -99.9 -99.99 -9.99
2019/11/12 00:54 EST    1.30   1.77   16  226   19  59.2  53.2 1010.5 13.8  1.011 -99.9 -99.99 -9.99
2019/11/12 01:00 EST    1.30   1.77   14  227   18  59.2  53.2 1010.5 13.7  1.011 -99.9 -99.99 -9.99
2019/11/12 01:06 EST    1.29   1.76   16  230   20  59.2  53.4 1010.4 13.7  1.011 -99.9 -99.99 -9.99
2019/11/12 01:12 EST    1.29   1.77   15  225   18  59.0  53.6 1010.3 13.8  1.011 -99.9 -99.99 -9.99
2019/11/12 01:18 EST    1.28   1.76   14  224   17  59.0  53.8 1010.3 13.9  1.011 -99.9 -99.99 -9.99
2019/11/12 01:24 EST    1.27   1.76   15  227   18  59.0  54.0 1010.3 13.9  1.011 -99.9 -99.99 -9.99
2019/11/12 01:30 EST    1.26   1.75   16  229   19  59.0  54.0 1010.2 14.0  1.011 -99.9 -99.99 -9.99
2019/11/12 01:36 EST    1.25   1.74   14  221   16  58.8  54.0 1010.2 14.0  1.011 -99.9 -99.99 -9.99
2019/11/12 01:42 EST    1.24   1.72   15  219   18  58.8  54.0 1010.1 13.9  1.011 -99.9 -99.99 -9.99
2019/11/12 01:48 EST    1.23   1.70   17  219   22  59.0  54.1 1010.0 14.0  1.011 -99.9 -99.99 -9.99
2019/11/12 01:54 EST    1.21   1.68   16  226   19  59.2  54.3 1010.0 14.1  1.011 -99.9 -99.99 -9.99
2019/11/12 02:00 EST    1.19   1.66   15  219   18  59.2  54.3 1010.0 14.0  1.011 -99.9 -99.99 -9.99
2019/11/12 02:06 EST    1.17   1.65   17  221   21  59.4  54.1 1010.0 14.0  1.011 -99.9 -99.99 -9.99
2019/11/12 02:12 EST    1.15   1.64   15  225   18  59.2  54.0 1010.1 13.9  1.011 -99.9 -99.99 -9.99
2019/11/12 02:18 EST    1.13   1.62   15  227   18  59.4  54.0 1010.1 13.9  1.011 -99.9 -99.99 -9.99
2019/11/12 02:24 EST    1.11   1.60   15  225   23  59.4  54.0 1010.2 14.0  1.011 -99.9 -99.99 -9.99
2019/11/12 02:30 EST    1.09   1.58   14  233   17  59.2  54.3 1010.2 14.1  1.011 -99.9 -99.99 -9.99
2019/11/12 02:36 EST    1.06   1.56   13  229   17  59.2  54.5 1010.0 14.2  1.011 -99.9 -99.99 -9.99
2019/11/12 02:42 EST    1.04   1.53   15  222   18  59.2  54.7 1009.7 14.2  1.011 -99.9 -99.99 -9.99
2019/11/12 02:48 EST    1.01   1.51   15  232   18  59.0  55.0 1010.0 14.3  1.011 -99.9 -99.99 -9.99
2019/11/12 02:54 EST    0.98   1.48   14  235   20  58.8  55.0 1009.8 14.2  1.011 -99.9 -99.99 -9.99
2019/11/12 03:00 EST    0.95   1.45   12  225   17  58.8  54.7 1009.4 14.1  1.011 -99.9 -99.99 -9.99
2019/11/12 03:06 EST    0.92   1.42   15  234   19  58.8  53.8 1009.7 13.9  1.011 -99.9 -99.99 -9.99
2019/11/12 03:12 EST    0.89   1.38   15  233   20  58.6  53.6 1009.8 13.9  1.011 -99.9 -99.99 -9.99
2019/11/12 03:18 EST    0.86   1.35   13  240   21  58.6  53.6 1009.6 13.9  1.011 -99.9 -99.99 -9.99
2019/11/12 03:24 EST    0.83   1.33   14  239   19  58.6  53.2 1009.5 13.8  1.011 -99.9 -99.99 -9.99
2019/11/12 03:30 EST    0.80   1.29   14  240   19  58.6  53.2 1009.5 13.7  1.011 -99.9 -99.99 -9.99
2019/11/12 03:36 EST    0.77   1.26   14  232   17  58.5  53.2 1009.5 13.7  1.011 -99.9 -99.99 -9.99
2019/11/12 03:42 EST    0.74   1.25   10  226   12  58.3  53.2 1009.1 13.7  1.011 -99.9 -99.99 -9.99
2019/11/12 03:48 EST    0.71   1.24   14  230   16  58.5  53.2 1009.3 13.7  1.011 -99.9 -99.99 -9.99
2019/11/12 03:54 EST    0.68   1.20   11  234   13  58.3  53.2 1009.3 13.7  1.011 -99.9 -99.99 -9.99
2019/11/12 04:00 EST    0.65   1.18   11  235   15  58.3  53.1 1009.5 13.7  1.011 -99.9 -99.99 -9.99
2019/11/12 04:06 EST    0.62   1.15   14  234   17  58.5  53.1 1009.5 13.7  1.011 -99.9 -99.99 -9.99
2019/11/12 04:12 EST    0.59   1.12   12  232   15  58.3  53.1 1009.5 13.7  1.011 -99.9 -99.99 -9.99
2019/11/12 04:18 EST    0.56   1.11   13  230   16  58.3  53.1 1009.6 13.7  1.011 -99.9 -99.99 -9.99
2019/11/12 04:24 EST    0.53   1.06   12  225   15  58.3  52.9 1009.6 13.7  1.011 -99.9 -99.99 -9.99
2019/11/12 04:30 EST    0.51   1.04   11  225   15  58.1  52.9 1009.7 13.7  1.011 -99.9 -99.99 -9.99
2019/11/12 04:36 EST    0.48   1.03   11  229   15  58.1  52.9 1009.7 13.7  1.011 -99.9 -99.99 -9.99
2019/11/12 04:42 EST    0.45   0.99   10  225   15  58.1  52.9 1009.6 13.6  1.011 -99.9 -99.99 -9.99
2019/11/12 04:48 EST    0.42   0.96   11  224   13  57.9  52.9 1009.5 13.6  1.011 -99.9 -99.99 -9.99
2019/11/12 04:54 EST    0.40   0.94   11  225   13  57.9  52.9 1009.4 13.7  1.011 -99.9 -99.99 -9.99
2019/11/12 05:00 EST    0.37   0.92   10  236   15  57.7  52.9 1009.5 13.6  1.011 -99.9 -99.99 -9.99
2019/11/12 05:06 EST    0.35   0.90   10  229   14  57.7  52.9 1009.4 13.6  1.011 -99.9 -99.99 -9.99
2019/11/12 05:12 EST    0.33   0.87    9  231   11  57.7  52.9 1009.3 13.6  1.011 -99.9 -99.99 -9.99
2019/11/12 05:18 EST    0.31   0.86   10  228   12  57.7  52.9 1009.4 13.5  1.011 -99.9 -99.99 -9.99
2019/11/12 05:24 EST    0.29   0.85    9  227   12  57.6  53.1 1009.4 13.7  1.011 -99.9 -99.99 -9.99
2019/11/12 05:30 EST    0.27   0.84   12  231   15  57.6  52.9 1009.5 13.7  1.011 -99.9 -99.99 -9.99
2019/11/12 05:36 EST    0.25   0.82    9  230   14  57.4  52.9 1009.2 13.6  1.011 -99.9 -99.99 -9.99
2019/11/12 05:42 EST    0.23   0.80   11  237   14  57.4  52.9 1009.5 13.6  1.011 -99.9 -99.99 -9.99
2019/11/12 05:48 EST    0.21   0.79   11  233   14  57.4  53.4 1009.3 13.9  1.011 -99.9 -99.99 -9.99
2019/11/12 05:54 EST    0.20   0.77    9  236   12  57.4  53.4 1009.3 13.9  1.011 -99.9 -99.99 -9.99
2019/11/12 06:00 EST    0.18   0.76   10  233   11  57.2  54.0 1009.2 14.0  1.011 -99.9 -99.99 -9.99
2019/11/12 06:06 EST    0.17   0.74   10  240   13  57.2  54.1 1009.2 14.0  1.011 -99.9 -99.99 -9.99
2019/11/12 06:12 EST    0.16   0.73   11  240   14  57.2  53.8 1009.3 13.8  1.011 -99.9 -99.99 -9.99
2019/11/12 06:18 EST    0.15   0.71    9  242   12  57.0  52.9 1009.3 13.7  1.011 -99.9 -99.99 -9.99
2019/11/12 06:24 EST    0.14   0.71    9  246   12  56.8  53.1 1009.5 13.9  1.011 -99.9 -99.99 -9.99
2019/11/12 06:30 EST    0.13   0.69    8  235    9  56.7  53.4 1009.5 13.8  1.011 -99.9 -99.99 -9.99
2019/11/12 06:36 EST    0.13   0.68   10  237   12  56.7  53.4 1009.9 13.8  1.011 -99.9 -99.99 -9.99
2019/11/12 06:42 EST    0.12   0.68   10  242   16  56.7  53.6 1010.1 13.9  1.011 -99.9 -99.99 -9.99
2019/11/12 06:48 EST    0.12   0.68   11  239   14  56.7  53.6 1010.0 13.8  1.011 -99.9 -99.99 -9.99
2019/11/12 06:54 EST    0.12   0.69   11  255   16  56.7  53.4 1010.1 13.8  1.011 -99.9 -99.99 -9.99
2019/11/12 07:00 EST    0.12   0.69   11  253   13  56.7  53.2 1010.1 13.6  1.011 -99.9 -99.99 -9.99
2019/11/12 07:06 EST    0.12   0.69    9  248   12  56.5  52.7 1010.1 13.6  1.011 -99.9 -99.99 -9.99
2019/11/12 07:12 EST    0.12   0.71    9  250   11  56.3  52.5 1010.1 13.6  1.011 -99.9 -99.99 -9.99
2019/11/12 07:18 EST    0.13   0.73   11  252   14  56.3  52.5 1010.2 13.6  1.011 -99.9 -99.99 -9.99
2019/11/12 07:24 EST    0.14   0.73    9  245   11  56.1  52.7 1010.4 13.5  1.011 -99.9 -99.99 -9.99
2019/11/12 07:30 EST    0.15   0.75    9  253   11  56.1  52.7 1010.6 13.5  1.011 -99.9 -99.99 -9.99
2019/11/12 07:36 EST    0.16   0.76    8  257    9  55.9  52.7 1010.6 13.6  1.011 -99.9 -99.99 -9.99
2019/11/12 07:42 EST    0.17   0.78    8  267   10  55.6  52.7 1010.7 13.6  1.011 -99.9 -99.99 -9.99
2019/11/12 07:48 EST    0.19   0.82    7  268    9  55.2  52.7 1010.9 13.5  1.011 -99.9 -99.99 -9.99
2019/11/12 07:54 EST    0.20   0.84    6  255    8  55.0  52.9 1010.7 13.6  1.011 -99.9 -99.99 -9.99
2019/11/12 08:00 EST    0.22   0.87    7  261    8  54.9  52.9 1010.8 13.7  1.011 -99.9 -99.99 -9.99
2019/11/12 08:06 EST    0.24   0.90    5  278    6  54.5  52.9 1010.9 13.7  1.011 -99.9 -99.99 -9.99
2019/11/12 08:12 EST    0.26   0.92    4  262    5  54.1  52.9 1010.9 13.7  1.011 -99.9 -99.99 -9.99
2019/11/12 08:18 EST    0.29   0.94    6  247    7  53.8  52.9 1011.0 13.8  1.011 -99.9 -99.99 -9.99
2019/11/12 08:24 EST    0.31   0.96    5  250    7  53.6  53.1 1011.0 13.8  1.011 -99.9 -99.99 -9.99
2019/11/12 08:30 EST    0.34   0.98    5  246    6  53.2  53.1 1010.9 13.8  1.011 -99.9 -99.99 -9.99
2019/11/12 08:36 EST    0.37   1.02    6  246    7  53.2  52.9 1011.1 13.7  1.011 -99.9 -99.99 -9.99
2019/11/12 08:42 EST    0.40   1.04    6  258    7  53.1  53.1 1011.4 13.5  1.011 -99.9 -99.99 -9.99
2019/11/12 08:48 EST    0.43   1.09   14  332   19  52.7  52.9 1012.4 13.6  1.011 -99.9 -99.99 -9.99
2019/11/12 08:54 EST    0.46   1.15   15  332   20  50.5  53.1 1012.8 13.7  1.011 -99.9 -99.99 -9.99
2019/11/12 09:00 EST    0.49   1.21   16  334   22  49.8  53.2 1012.8 13.7  1.011 -99.9 -99.99 -9.99
2019/11/12 09:06 EST    0.53   1.24   17  328   21  49.3  53.1 1013.0 13.7  1.011 -99.9 -99.99 -9.99
2019/11/12 09:12 EST    0.56   1.29   16  328   21  48.9  53.1 1013.2 13.7  1.011 -99.9 -99.99 -9.99
2019/11/12 09:18 EST    0.60   1.35   17  318   23  47.7  53.1 1013.4 13.7  1.011 -99.9 -99.99 -9.99
2019/11/12 09:24 EST    0.63   1.38   17  327   20  47.1  52.9 1013.6 13.7  1.011 -99.9 -99.99 -9.99
2019/11/12 09:30 EST    0.67   1.40   15  332   20  46.6  52.9 1013.9 13.7  1.011 -99.9 -99.99 -9.99
2019/11/12 09:36 EST    0.70   1.45   21  334   33  45.5  53.1 1014.2 13.7  1.011 -99.9 -99.99 -9.99
2019/11/12 09:42 EST    0.74   1.47   18  329   24  45.0  53.1 1014.2 13.7  1.011 -99.9 -99.99 -9.99
2019/11/12 09:48 EST    0.78   1.54   18  331   23  44.2  53.2 1014.3 13.8  1.011 -99.9 -99.99 -9.99
2019/11/12 09:54 EST    0.81   1.58   18  331   24  43.9  53.2 1014.4 13.8  1.011 -99.9 -99.99 -9.99
2019/11/12 10:00 EST    0.85   1.60   17  331   27  43.9  53.2 1014.5 13.8  1.011 -99.9 -99.99 -9.99
2019/11/12 10:06 EST    0.88   1.65   18  331   25  43.7  53.2 1014.8 13.8  1.011 -99.9 -99.99 -9.99
2019/11/12 10:12 EST    0.92   1.66   19  332   28  43.3  53.2 1015.2 13.8  1.011 -99.9 -99.99 -9.99
2019/11/12 10:18 EST    0.95   1.68   19  346   28  43.2  53.2 1014.9 13.9  1.011 -99.9 -99.99 -9.99
2019/11/12 10:24 EST    0.99   1.71   17  342   29  42.8  54.0 1015.1 14.1  1.011 -99.9 -99.99 -9.99
2019/11/12 10:30 EST    1.02   1.71   12  341   18  42.6  54.1 1015.1 14.1  1.011 -99.9 -99.99 -9.99
2019/11/12 10:36 EST    1.05   1.76   18  332   27  42.3  54.0 1015.4 14.2  1.011 -99.9 -99.99 -9.99
2019/11/12 10:42 EST    1.08   1.78   17  332   29  42.1  53.6 1015.5 13.9  1.011 -99.9 -99.99 -9.99
2019/11/12 10:48 EST    1.11   1.78   19  340   29  41.9  53.6 1015.5 14.0  1.011 -99.9 -99.99 -9.99
2019/11/12 10:54 EST    1.14   1.80   16  337   25  41.5  53.6 1015.5 14.0  1.011 -99.9 -99.99 -9.99
2019/11/12 11:00 EST    1.17   1.82   22  340   32  41.4  53.6 1015.7 14.0  1.011 -99.9 -99.99 -9.99
2019/11/12 11:06 EST    1.20   1.82   18  343   25  41.0  53.6 1015.7 13.9  1.011 -99.9 -99.99 -9.99
2019/11/12 11:12 EST    1.23   1.84   14  330   22  41.4  53.6 1015.5 13.9  1.011 -99.9 -99.99 -9.99
2019/11/12 11:18 EST    1.25   1.83   20  348   29  40.6  53.6 1015.4 13.9  1.011 -99.9 -99.99 -9.99
2019/11/12 11:24 EST    1.28   1.83   19  344   29  40.3  53.4 1015.6 13.9  1.011 -99.9 -99.99 -9.99
2019/11/12 11:30 EST    1.30   1.84   18  346   28  40.3  53.4 1015.4 14.0  1.011 -99.9 -99.99 -9.99
2019/11/12 11:36 EST    1.32   1.83   18  336   26  40.3  53.8 1015.3 14.1  1.011 -99.9 -99.99 -9.99
2019/11/12 11:42 EST    1.34   1.82   18  345   30  39.6  53.8 1015.3 14.0  1.011 -99.9 -99.99 -9.99
2019/11/12 11:48 EST    1.36   1.81   19  349   27  39.0  53.6 1015.2 14.0  1.011 -99.9 -99.99 -9.99
2019/11/12 11:54 EST    1.38   1.81   21  348   29  38.5  53.8 1015.2 14.1  1.011 -99.9 -99.99 -9.99
2019/11/12 12:00 EST    1.39   1.82   17  342   23  38.8  53.6 1015.3 14.0  1.011 -99.9 -99.99 -9.99
2019/11/12 12:06 EST    1.41   1.82   17  351   25  38.5  53.4 1015.5 13.9  1.011 -99.9 -99.99 -9.99
2019/11/12 12:12 EST    1.42   1.82   22  348   34  38.1  53.2 1015.7 13.9  1.011 -99.9 -99.99 -9.99
2019/11/12 12:18 EST    1.43   1.81   20  350   30  37.9  53.4 1015.5 14.0  1.011 -99.9 -99.99 -9.99
2019/11/12 12:24 EST    1.45   1.82   19  347   29  37.6  53.6 1015.6 14.0  1.011 -99.9 -99.99 -9.99
2019/11/12 12:30 EST    1.46   1.82   19  348   27  37.4  53.8 1015.7 14.1  1.011 -99.9 -99.99 -9.99
2019/11/12 12:36 EST    1.46   1.84   17  357   25  36.7  53.8 1016.0 14.2  1.011 -99.9 -99.99 -9.99
2019/11/12 12:42 EST    1.47   1.88   20    1   29  36.1  53.8 1016.1 14.2  1.011 -99.9 -99.99 -9.99
2019/11/12 12:48 EST    1.48   1.91   18  360   26  36.1  53.8 1016.0 14.2  1.011 -99.9 -99.99 -9.99
2019/11/12 12:54 EST    1.48   1.94   18    2   26  36.0  53.8 1016.1 14.3  1.011 -99.9 -99.99 -9.99
2019/11/12 13:00 EST    1.48   1.95   16  357   25  36.3  54.0 1016.0 14.3  1.011 -99.9 -99.99 -9.99
2019/11/12 13:06 EST    1.48   1.94   14    2   19  36.3  54.0 1016.2 14.3  1.011 -99.9 -99.99 -9.99
2019/11/12 13:12 EST    1.48   1.95   14  348   20  36.1  54.1 1016.2 14.3  1.011 -99.9 -99.99 -9.99
2019/11/12 13:18 EST    1.48   1.95   17  355   23  36.0  54.1 1016.3 14.3  1.011 -99.9 -99.99 -9.99
2019/11/12 13:24 EST    1.48   1.95   16  353   23  36.3  54.3 1016.3 14.4  1.012 -99.9 -99.99 -9.99
2019/11/12 13:30 EST    1.47   1.94   17  359   25  36.1  54.3 1016.4 14.5  1.012 -99.9 -99.99 -9.99
2019/11/12 13:36 EST    1.47   1.92   13  355   19  36.5  54.5 1016.4 14.4  1.012 -99.9 -99.99 -9.99
2019/11/12 13:42 EST    1.46   1.90   16  348   25  36.5  54.3 1016.5 14.3  1.011 -99.9 -99.99 -9.99
2019/11/12 13:48 EST    1.45   1.86   17  349   24  36.5  54.3 1016.6 14.4  1.011 -99.9 -99.99 -9.99
2019/11/12 13:54 EST    1.44   1.84   18  351   27  36.1  54.5 1016.7 14.5  1.012 -99.9 -99.99 -9.99
2019/11/12 14:00 EST    1.42   1.80   19  358   28  36.0  54.5 1016.6 14.4  1.011 -99.9 -99.99 -9.99
2019/11/12 14:06 EST    1.41   1.77   14  351   21  36.0  54.5 1016.5 14.6  1.012 -99.9 -99.99 -9.99
2019/11/12 14:12 EST    1.39   1.75   15  344   22  36.1  54.3 1016.6 14.5  1.012 -99.9 -99.99 -9.99
2019/11/12 14:18 EST    1.37   1.71   16  358   26  36.0  54.1 1016.7 14.4  1.012 -99.9 -99.99 -9.99
2019/11/12 14:24 EST    1.35   1.67   16  359   27  35.8  54.0 1016.6 14.3  1.011 -99.9 -99.99 -9.99
2019/11/12 14:30 EST    1.33   1.63   15  359   22  35.6  53.6 1016.6 14.3  1.011 -99.9 -99.99 -9.99
2019/11/12 14:36 EST    1.31   1.60   11  358   18  35.8  53.8 1016.4 14.3  1.011 -99.9 -99.99 -9.99
2019/11/12 14:42 EST    1.29   1.59   12    8   18  35.6  53.8 1016.6 14.3  1.011 -99.9 -99.99 -9.99
2019/11/12 14:48 EST    1.26   1.56   12    3   16  35.8  53.8 1016.6 14.3  1.011 -99.9 -99.99 -9.99
2019/11/12 14:54 EST    1.24   1.55   10    8   15  35.6  53.6 1016.7 14.3  1.011 -99.9 -99.99 -9.99
2019/11/12 15:00 EST    1.21   1.52   11   12   15  35.4  54.0 1016.4 14.3  1.011 -99.9 -99.99 -9.99
2019/11/12 15:06 EST    1.18   1.46    8   31   13  35.1  54.0 1016.3 14.4  1.012 -99.9 -99.99 -9.99
2019/11/12 15:12 EST    1.15   1.43    8   17   11  35.2  54.1 1016.2 14.5  1.012 -99.9 -99.99 -9.99
2019/11/12 15:18 EST    1.12   1.37    8   18   12  36.1  54.0 1016.4 14.4  1.012 -99.9 -99.99 -9.99
2019/11/12 15:24 EST    1.09   1.33    9   23   12  36.7  54.1 1016.5 14.4  1.012 -99.9 -99.99 -9.99
2019/11/12 15:30 EST    1.06   1.30    9    8   13  37.0  54.1 1016.7 14.3  1.011 -99.9 -99.99 -9.99
2019/11/12 15:36 EST    1.03   1.25    7    7   11  37.4  53.6 1016.8 14.2  1.011 -99.9 -99.99 -9.99
2019/11/12 15:42 EST    0.99   1.24    8   11   12  37.4  54.0 1016.6 14.4  1.011 -99.9 -99.99 -9.99
2019/11/12 15:48 EST    0.96   1.25   10    0   13  37.8  54.0 1016.7 14.4  1.011 -99.9 -99.99 -9.99
2019/11/12 15:54 EST    0.93   1.21    9  353   13  38.3  54.0 1016.8 14.4  1.012 -99.9 -99.99 -9.99
2019/11/12 16:00 EST    0.89   1.19    8  354   16  39.0  54.0 1016.9 14.4  1.012 -99.9 -99.99 -9.99
2019/11/12 16:06 EST    0.86   1.16   13  358   21  39.7  54.1 1016.8 14.4  1.011 -99.9 -99.99 -9.99
2019/11/12 16:12 EST    0.82   1.13   11  343   16  40.1  54.1 1017.1 14.4  1.012 -99.9 -99.99 -9.99
2019/11/12 16:18 EST    0.79   1.13   14  354   20  40.1  54.1 1017.1 14.4  1.011 -99.9 -99.99 -9.99
2019/11/12 16:24 EST    0.76   1.11   15  351   22  40.3  54.1 1017.1 14.4  1.012 -99.9 -99.99 -9.99
2019/11/12 16:30 EST    0.72   1.09   12  345   18  40.5  54.0 1017.3 14.4  1.011 -99.9 -99.99 -9.99
2019/11/12 16:36 EST    0.69   1.08    8  353   12  40.5  53.6 1017.2 14.2  1.011 -99.9 -99.99 -9.99
2019/11/12 16:42 EST    0.66   1.05   11   11   16  40.5  53.6 1017.3 14.3  1.011 -99.9 -99.99 -9.99
2019/11/12 16:48 EST    0.63   1.05   11   22   17  40.1  53.6 1017.5 14.3  1.011 -99.9 -99.99 -9.99
2019/11/12 16:54 EST    0.60   1.00   11   13   17  40.1  53.6 1017.6 14.4  1.012 -99.9 -99.99 -9.99
2019/11/12 17:00 EST    0.56   0.95   12   18   20  39.9  53.8 1017.7 14.4  1.012 -99.9 -99.99 -9.99
2019/11/12 17:06 EST    0.53   0.94   11  359   17  40.1  53.8 1017.9 14.4  1.012 -99.9 -99.99 -9.99
2019/11/12 17:12 EST    0.51   0.89    8    3   13  40.1  53.6 1017.8 14.4  1.012 -99.9 -99.99 -9.99
2019/11/12 17:18 EST    0.48   0.87   11    6   16  40.1  53.8 1017.9 14.3  1.011 -99.9 -99.99 -9.99
2019/11/12 17:24 EST    0.45   0.85   12    9   19  40.3  53.8 1018.0 14.4  1.012 -99.9 -99.99 -9.99
2019/11/12 17:30 EST    0.42   0.82   12    4   17  40.3  53.8 1018.1 14.4  1.012 -99.9 -99.99 -9.99
2019/11/12 17:36 EST    0.40   0.79   11   10   15  40.3  53.4 1018.2 14.3  1.011 -99.9 -99.99 -9.99
2019/11/12 17:42 EST    0.37   0.76    9    1   15  40.5  53.4 1018.4 14.3  1.012 -99.9 -99.99 -9.99
2019/11/12 17:48 EST    0.35   0.72   13  360   17  40.6  53.4 1018.5 14.3  1.011 -99.9 -99.99 -9.99
2019/11/12 17:54 EST    0.32   0.69   13  359   19  40.6  53.2 1018.6 14.3  1.011 -99.9 -99.99 -9.99
2019/11/12 18:00 EST    0.30   0.66   11  352   21  41.0  53.2 1018.6 14.3  1.011 -99.9 -99.99 -9.99
2019/11/12 18:06 EST    0.28   0.63   15  351   21  40.8  53.4 1018.9 14.3  1.011 -99.9 -99.99 -9.99
2019/11/12 18:12 EST    0.26   0.63   13  353   19  40.8  53.2 1018.9 14.1  1.011 -99.9 -99.99 -9.99
2019/11/12 18:18 EST    0.24   0.60   16  346   25  40.8  53.1 1019.0 14.3  1.011 -99.9 -99.99 -9.99
2019/11/12 18:24 EST    0.23   0.55   16  346   24  40.6  52.9 1019.2 14.3  1.012 -99.9 -99.99 -9.99
2019/11/12 18:30 EST    0.21   0.53   17  355   24  40.5  52.9 1019.2 14.1  1.011 -99.9 -99.99 -9.99
2019/11/12 18:36 EST    0.20   0.48   12    0   20  40.5  52.9 1019.3 14.1  1.011 -99.9 -99.99 -9.99
2019/11/12 18:42 EST    0.18   0.45   18  347   30  40.5  52.7 1019.6 14.2  1.011 -99.9 -99.99 -9.99
2019/11/12 18:48 EST    0.17   0.44   13  351   19  40.5  52.7 1019.8 14.1  1.011 -99.9 -99.99 -9.99
2019/11/12 18:54 EST    0.16   0.43   17  350   25  39.9  52.5 1019.9 14.1  1.011 -99.9 -99.99 -9.99
2019/11/12 19:00 EST    0.15   0.41   19  351   24  39.7  52.5 1020.0 14.1  1.011 -99.9 -99.99 -9.99
2019/11/12 19:06 EST    0.14   0.40   14  351   21  39.6  52.5 1020.0 14.0  1.011 -99.9 -99.99 -9.99
2019/11/12 19:12 EST    0.14   0.39   14    4   25  39.6  52.3 1020.2 14.1  1.011 -99.9 -99.99 -9.99
2019/11/12 19:18 EST    0.13   0.37   16  359   27  39.4  52.3 1020.3 14.1  1.011 -99.9 -99.99 -9.99
2019/11/12 19:24 EST    0.13   0.36   14    0   22  39.2  52.3 1020.3 14.1  1.011 -99.9 -99.99 -9.99
2019/11/12 19:30 EST    0.13   0.36   12  360   21  39.0  52.3 1020.4 14.1  1.011 -99.9 -99.99 -9.99
2019/11/12 19:36 EST    0.13   0.34   14    5   23  39.0  52.3 1020.5 14.1  1.011 -99.9 -99.99 -9.99
2019/11/12 19:42 EST    0.13   0.33   13  351   21  39.2  52.3 1020.7 14.1  1.011 -99.9 -99.99 -9.99
2019/11/12 19:48 EST    0.14   0.30   17  355   27  38.8  52.2 1020.9 14.1  1.011 -99.9 -99.99 -9.99
2019/11/12 19:54 EST    0.14   0.28   17  345   29  38.7  52.2 1021.1 14.1  1.011 -99.9 -99.99 -9.99
2019/11/12 20:00 EST    0.15   0.26   19  339   27  38.5  52.2 1021.1 14.1  1.011 -99.9 -99.99 -9.99
2019/11/12 20:06 EST    0.16   0.24   17  354   29  37.9  52.2 1021.3 14.1  1.011 -99.9 -99.99 -9.99
2019/11/12 20:12 EST    0.17   0.27   20  348   29  37.9  52.2 1021.5 14.1  1.011 -99.9 -99.99 -9.99
2019/11/12 20:18 EST    0.18   0.30   16  351   28  37.9  52.2 1021.5 14.1  1.011 -99.9 -99.99 -9.99
2019/11/12 20:24 EST    0.20   0.31   20  351   30  37.8  52.0 1021.6 14.1  1.011 -99.9 -99.99 -9.99
2019/11/12 20:30 EST    0.22   0.31   18  354   28  37.6  52.0 1021.7 14.1  1.011 -99.9 -99.99 -9.99
2019/11/12 20:36 EST    0.23   0.30   19  348   27  37.2  52.0 1021.8 13.9  1.011 -99.9 -99.99 -9.99
2019/11/12 20:42 EST    0.25   0.29   19  358   29  37.0  51.8 1021.9 14.0  1.011 -99.9 -99.99 -9.99
2019/11/12 20:48 EST    0.28   0.27   18  344   27  37.0  51.8 1022.0 14.0  1.011 -99.9 -99.99 -9.99
2019/11/12 20:54 EST    0.30   0.26   17  342   23  36.9  51.6 1022.1 14.0  1.011 -99.9 -99.99 -9.99
2019/11/12 21:00 EST    0.32   0.25   21  342   31  36.9  51.6 1022.3 13.9  1.011 -99.9 -99.99 -9.99
2019/11/12 21:06 EST    0.35   0.25   19  337   30  36.7  51.4 1022.2 14.0  1.011 -99.9 -99.99 -9.99
2019/11/12 21:12 EST    0.38   0.26   17  347   27  36.5  51.4 1022.2 14.0  1.011 -99.9 -99.99 -9.99
2019/11/12 21:18 EST    0.40   0.23   16  351   25  36.3  51.4 1022.3 13.9  1.011 -99.9 -99.99 -9.99
2019/11/12 21:24 EST    0.43   0.22   18  356   29  36.3  51.3 1022.4 13.9  1.011 -99.9 -99.99 -9.99
2019/11/12 21:30 EST    0.46   0.22   16  344   23  36.5  51.3 1022.4 13.9  1.011 -99.9 -99.99 -9.99
2019/11/12 21:36 EST    0.49   0.24   16  348   24  36.5  51.3 1022.6 13.9  1.011 -99.9 -99.99 -9.99
2019/11/12 21:42 EST    0.53   0.25   16  345   26  36.1  51.1 1022.7 13.8  1.011 -99.9 -99.99 -9.99
2019/11/12 21:48 EST    0.56   0.25   15  349   21  36.1  51.1 1022.7 13.9  1.011 -99.9 -99.99 -9.99
2019/11/12 21:54 EST    0.59   0.28   19  354   28  35.6  50.9 1023.0 13.8  1.011 -99.9 -99.99 -9.99
2019/11/12 22:00 EST    0.62   0.31   18  350   28  35.8  50.9 1022.9 13.9  1.011 -99.9 -99.99 -9.99
2019/11/12 22:06 EST    0.66   0.35   20  343   28  35.8  50.9 1023.1 13.8  1.011 -99.9 -99.99 -9.99
2019/11/12 22:12 EST    0.69   0.38   17  343   26  35.6  50.9 1023.1 13.9  1.011 -99.9 -99.99 -9.99
2019/11/12 22:18 EST    0.72   0.41   19  342   31  36.0  50.7 1023.2 13.9  1.011 -99.9 -99.99 -9.99
2019/11/12 22:24 EST    0.75   0.45   19  350   25  35.4  50.7 1023.3 13.9  1.011 -99.9 -99.99 -9.99
2019/11/12 22:30 EST    0.78   0.50   18  349   29  35.4  50.7 1023.3 13.9  1.011 -99.9 -99.99 -9.99
2019/11/12 22:36 EST    0.82   0.54   16  351   24  35.4  50.5 1023.4 13.9  1.011 -99.9 -99.99 -9.99
2019/11/12 22:42 EST    0.85   0.58   16  355   25  35.4  50.5 1023.4 13.9  1.011 -99.9 -99.99 -9.99
2019/11/12 22:48 EST    0.88   0.63   18  360   27  35.2  50.5 1023.5 13.9  1.011 -99.9 -99.99 -9.99
2019/11/12 22:54 EST    0.91   0.68   17  354   24  35.2  50.5 1023.7 13.9  1.011 -99.9 -99.99 -9.99
2019/11/12 23:00 EST    0.93   0.72   17  357   24  35.4  50.5 1023.8 13.9  1.011 -99.9 -99.99 -9.99
2019/11/12 23:06 EST    0.96   0.75   17    3   25  35.1  50.5 1024.0 13.8  1.011 -99.9 -99.99 -9.99
2019/11/12 23:12 EST    0.99   0.77   15  359   23  35.2  50.5 1024.1 13.9  1.011 -99.9 -99.99 -9.99
2019/11/12 23:18 EST    1.01   0.81   16    2   26  34.7  50.4 1024.2 13.9  1.011 -99.9 -99.99 -9.99
2019/11/12 23:24 EST    1.04   0.87   17    1   24  34.7  50.4 1024.1 13.8  1.011 -99.9 -99.99 -9.99
2019/11/12 23:30 EST    1.06   0.90   13    0   19  34.7  50.4 1024.2 13.9  1.011 -99.9 -99.99 -9.99
2019/11/12 23:36 EST    1.09   0.93   16   12   22  34.3  50.4 1024.3 13.8  1.011 -99.9 -99.99 -9.99
2019/11/12 23:42 EST    1.11   0.96   17  352   24  34.3  50.4 1024.4 14.0  1.012 -99.9 -99.99 -9.99
2019/11/12 23:48 EST    1.13   0.98   17  352   28  34.3  50.4 1024.6 14.1  1.012 -99.9 -99.99 -9.99
2019/11/12 23:54 EST    1.15   1.01   18  356   24  34.2  50.4 1024.6 14.2  1.012 -99.9 -99.99 -9.99
2019/11/13 00:00 EST    1.17   1.02   14    0   23  34.3  50.4 1024.7 14.2  1.012 -99.9 -99.99 -9.99
2019/11/13 00:06 EST    1.18   1.02   17    3   24  34.0  50.2 1024.8 14.3  1.012 -99.9 -99.99 -9.99
2019/11/13 00:12 EST    1.20   1.03   15    5   23  34.0  50.0 1024.8 14.3  1.012 -99.9 -99.99 -9.99
2019/11/13 00:18 EST    1.21   1.04   15    7   24  33.8  49.8 1024.9 14.4  1.012 -99.9 -99.99 -9.99
2019/11/13 00:24 EST    1.23   1.04   17    4   27  33.8  49.8 1025.0 14.3  1.012 -99.9 -99.99 -9.99
2019/11/13 00:30 EST    1.24   1.03   17    5   22  33.6  49.8 1024.9 14.4  1.012 -99.9 -99.99 -9.99
2019/11/13 00:36 EST    1.25   1.05   15    7   29  33.6  49.6 1024.9 14.4  1.012 -99.9 -99.99 -9.99
2019/11/13 00:42 EST    1.26   1.04   14    8   23  33.4  49.5 1024.9 14.4  1.012 -99.9 -99.99 -9.99
2019/11/13 00:48 EST    1.27   1.04   15    4   24  33.4  49.5 1024.9 14.1  1.012 -99.9 -99.99 -9.99
2019/11/13 00:54 EST    1.27   1.04   14  350   22  33.4  49.3 1025.0 14.3  1.012 -99.9 -99.99 -9.99
2019/11/13 01:00 EST    1.28   1.02   14    3   26  33.4  49.3 1025.1 14.0  1.012 -99.9 -99.99 -9.99
2019/11/13 01:06 EST    1.28   1.00   15    7   24  33.1  49.3 1025.2 14.4  1.012 -99.9 -99.99 -9.99
2019/11/13 01:12 EST    1.29   1.00   15  358   21  33.1  49.3 1025.3 14.3  1.012 -99.9 -99.99 -9.99
2019/11/13 01:18 EST    1.29   0.98   12  359   17  33.1  49.3 1025.3 14.3  1.012 -99.9 -99.99 -9.99
2019/11/13 01:24 EST    1.29   0.97   15  357   21  33.3  49.3 1025.4 14.4  1.012 -99.9 -99.99 -9.99
2019/11/13 01:30 EST    1.29   0.97   16  351   24  33.3  49.3 1025.6 14.4  1.012 -99.9 -99.99 -9.99
2019/11/13 01:36 EST    1.28   0.97   16  359   21  32.9  49.3 1025.6 14.4  1.012 -99.9 -99.99 -9.99
2019/11/13 01:42 EST    1.28   0.97   16    1   25  32.9  49.3 1025.5 14.3  1.012 -99.9 -99.99 -9.99
2019/11/13 01:48 EST    1.27   0.97   12  356   21  32.7  49.3 1025.6 14.4  1.012 -99.9 -99.99 -9.99
2019/11/13 01:54 EST    1.27   0.96   13  346   20  32.5  49.3 1025.5 14.3  1.012 -99.9 -99.99 -9.99
2019/11/13 02:00 EST    1.26   0.96   12  359   21  32.5  49.1 1025.3 14.4  1.012 -99.9 -99.99 -9.99
2019/11/13 02:06 EST    1.25   0.96   15  356   22  32.5  49.1 1025.5 14.3  1.012 -99.9 -99.99 -9.99
2019/11/13 02:12 EST    1.24   0.95   16    6   23  32.2  49.1 1025.4 14.3  1.012 -99.9 -99.99 -9.99
2019/11/13 02:18 EST    1.23   0.93   15  359   21  32.2  48.9 1025.6 14.3  1.012 -99.9 -99.99 -9.99
2019/11/13 02:24 EST    1.21   0.92   14    2   20  32.0  48.9 1025.7 14.4  1.012 -99.9 -99.99 -9.99
2019/11/13 02:30 EST    1.20   0.92   13  354   20  32.0  48.9 1025.9 14.4  1.012 -99.9 -99.99 -9.99
2019/11/13 02:36 EST    1.18   0.90   15  359   23  31.6  48.9 1026.0 14.3  1.012 -99.9 -99.99 -9.99
2019/11/13 02:42 EST    1.16   0.90   16    1   23  31.6  48.9 1026.2 14.4  1.012 -99.9 -99.99 -9.99
2019/11/13 02:48 EST    1.14   0.89   15  359   23  31.5  49.1 1026.2 14.4  1.012 -99.9 -99.99 -9.99
2019/11/13 02:54 EST    1.12   0.85   16    8   23  31.5  49.1 1026.3 14.4  1.012 -99.9 -99.99 -9.99
2019/11/13 03:00 EST    1.10   0.84   14  354   19  31.5  49.3 1026.3 14.3  1.012 -99.9 -99.99 -9.99
2019/11/13 03:06 EST    1.07   0.82   15    4   20  31.5  49.1 1026.4 14.5  1.012 -99.9 -99.99 -9.99
2019/11/13 03:12 EST    1.05   0.80   13    2   18  31.5  49.5 1026.4 14.4  1.012 -99.9 -99.99 -9.99
2019/11/13 03:18 EST    1.02   0.78   14    0   22  31.5  49.6 1026.5 14.5  1.012 -99.9 -99.99 -9.99
2019/11/13 03:24 EST    1.00   0.77   12  355   18  31.5  49.8 1026.6 14.5  1.012 -99.9 -99.99 -9.99
2019/11/13 03:30 EST    0.97   0.74   14  359   22  31.3  50.0 1026.6 14.5  1.012 -99.9 -99.99 -9.99
2019/11/13 03:36 EST    0.94   0.72   12  359   18  31.1  50.2 1026.6 14.6  1.012 -99.9 -99.99 -9.99
2019/11/13 03:42 EST    0.91   0.72   14    3   19  30.7  50.2 1026.7 14.6  1.012 -99.9 -99.99 -9.99
2019/11/13 03:48 EST    0.88   0.71   14  359   21  30.7  50.4 1026.8 14.5  1.012 -99.9 -99.99 -9.99
2019/11/13 03:54 EST    0.85   0.67   12  354   19  30.7  50.4 1026.9 14.5  1.012 -99.9 -99.99 -9.99
2019/11/13 04:00 EST    0.82   0.67   15  352   21  30.6  50.4 1027.0 14.6  1.012 -99.9 -99.99 -9.99
2019/11/13 04:06 EST    0.79   0.65   14  358   21  30.6  50.4 1027.1 14.6  1.012 -99.9 -99.99 -9.99
2019/11/13 04:12 EST    0.76   0.61   13  357   20  30.4  50.5 1027.2 14.6  1.012 -99.9 -99.99 -9.99
2019/11/13 04:18 EST    0.73   0.59   13  356   20  30.4  50.5 1027.3 14.7  1.012 -99.9 -99.99 -9.99
2019/11/13 04:24 EST    0.70   0.56   14    3   17  30.0  50.4 1027.4 14.7  1.012 -99.9 -99.99 -9.99
2019/11/13 04:30 EST    0.67   0.53   14  359   20  30.4  50.4 1027.6 14.7  1.012 -99.9 -99.99 -9.99
2019/11/13 04:36 EST    0.64   0.50   15    3   20  30.0  50.4 1027.6 14.7  1.012 -99.9 -99.99 -9.99
2019/11/13 04:42 EST    0.61   0.48   14  359   19  30.0  50.2 1027.7 14.7  1.012 -99.9 -99.99 -9.99
2019/11/13 04:48 EST    0.58   0.45   11  355   17  29.8  50.2 1027.8 14.6  1.012 -99.9 -99.99 -9.99
2019/11/13 04:54 EST    0.55   0.42   13    5   22  29.8  50.0 1028.0 14.5  1.012 -99.9 -99.99 -9.99
2019/11/13 05:00 EST    0.52   0.40   13  353   20  29.8  50.0 1028.0 14.6  1.012 -99.9 -99.99 -9.99
2019/11/13 05:06 EST    0.49   0.39   13    1   21  30.0  50.2 1028.0 14.6  1.012 -99.9 -99.99 -9.99
2019/11/13 05:12 EST    0.46   0.36   11    4   16  29.8  50.0 1028.0 14.6  1.012 -99.9 -99.99 -9.99
2019/11/13 05:18 EST    0.43   0.34   14  354   18  29.7  50.0 1028.1 14.4  1.012 -99.9 -99.99 -9.99
2019/11/13 05:24 EST    0.41   0.31   15  357   21  29.7  49.8 1028.1 14.5  1.012 -99.9 -99.99 -9.99
2019/11/13 05:30 EST    0.38   0.29   15  352   22  29.5  49.6 1028.3 14.6  1.012 -99.9 -99.99 -9.99
2019/11/13 05:36 EST    0.36   0.27   15  352   20  29.3  49.8 1028.4 14.6  1.012 -99.9 -99.99 -9.99
2019/11/13 05:42 EST    0.33   0.25   15   11   22  29.3  50.0 1028.3 14.3  1.012 -99.9 -99.99 -9.99
2019/11/13 05:48 EST    0.31   0.24   14    4   23  29.3  50.0 1028.3 14.4  1.012 -99.9 -99.99 -9.99
2019/11/13 05:54 EST    0.29   0.22   12  357   19  29.1  49.8 1028.6 14.5  1.012 -99.9 -99.99 -9.99
2019/11/13 06:00 EST    0.27   0.21   13  358   18  29.1  49.5 1028.7 14.5  1.012 -99.9 -99.99 -9.99
2019/11/13 06:06 EST    0.25   0.18   13   14   20  28.9  49.5 1028.7 14.5  1.012 -99.9 -99.99 -9.99
2019/11/13 06:12 EST    0.23   0.15   13  354   18  29.1  49.5 1029.0 14.5  1.012 -99.9 -99.99 -9.99
2019/11/13 06:18 EST    0.21   0.14   12   12   17  28.9  49.5 1029.1 14.5  1.012 -99.9 -99.99 -9.99
2019/11/13 06:24 EST    0.20   0.12   11  354   18  28.9  49.1 1029.2 14.5  1.012 -99.9 -99.99 -9.99
2019/11/13 06:30 EST    0.18   0.10   12  349   19  28.9  49.1 1029.3 14.4  1.012 -99.9 -99.99 -9.99
2019/11/13 06:36 EST    0.17   0.10   12    4   17  28.8  48.9 1029.3 14.4  1.012 -99.9 -99.99 -9.99
2019/11/13 06:42 EST    0.16   0.09   15    8   19  28.9  48.9 1029.4 14.4  1.012 -99.9 -99.99 -9.99
2019/11/13 06:48 EST    0.14   0.08   12    3   18  28.8  48.7 1029.5 14.4  1.012 -99.9 -99.99 -9.99
2019/11/13 06:54 EST    0.13   0.08   14    8   18  28.8  48.7 1029.5 14.4  1.012 -99.9 -99.99 -9.99
2019/11/13 07:00 EST    0.13   0.08   14  357   20  28.8  48.7 1029.6 14.4  1.012 -99.9 -99.99 -9.99
2019/11/13 07:06 EST    0.12   0.07   11    1   20  28.8  48.7 1029.6 14.4  1.012 -99.9 -99.99 -9.99
2019/11/13 07:12 EST    0.11   0.08   14  356   19  28.8  48.7 1029.7 14.4  1.012 -99.9 -99.99 -9.99
2019/11/13 07:18 EST    0.11   0.09   10    4   16  28.8  48.7 1029.7 14.4  1.012 -99.9 -99.99 -9.99
2019/11/13 07:24 EST    0.11   0.09   15  354   23  28.6  48.6 1029.9 14.4  1.012 -99.9 -99.99 -9.99
2019/11/13 07:30 EST    0.11   0.09   11  356   17  28.9  48.6 1030.0 14.3  1.012 -99.9 -99.99 -9.99
2019/11/13 07:36 EST    0.11   0.10   12  356   18  28.9  48.4 1030.0 14.4  1.012 -99.9 -99.99 -9.99
2019/11/13 07:42 EST    0.11   0.11   11  358   16  28.9  48.4 1030.0 14.4  1.012 -99.9 -99.99 -9.99
2019/11/13 07:48 EST    0.11   0.12   14  351   19  28.9  48.0 1030.1 14.4  1.012 -99.9 -99.99 -9.99
2019/11/13 07:54 EST    0.12   0.13   14   14   20  28.9  48.0 1030.2 14.4  1.012 -99.9 -99.99 -9.99
2019/11/13 08:00 EST    0.13   0.14   11  352   19  29.1  48.0 1030.4 14.5  1.012 -99.9 -99.99 -9.99
2019/11/13 08:06 EST    0.13   0.16   14    7   19  29.1  48.2 1030.5 14.4  1.012 -99.9 -99.99 -9.99
2019/11/13 08:12 EST    0.14   0.17   11    3   17  29.7  48.0 1030.6 14.4  1.012 -99.9 -99.99 -9.99
2019/11/13 08:18 EST    0.16   0.19   11  357   18  30.0  48.0 1030.6 14.4  1.012 -99.9 -99.99 -9.99
2019/11/13 08:24 EST    0.17   0.21   15  351   21  29.3  48.0 1030.7 14.4  1.012 -99.9 -99.99 -9.99
2019/11/13 08:30 EST    0.19   0.22   10  359   17  29.8  47.8 1030.7 14.4  1.012 -99.9 -99.99 -9.99
2019/11/13 08:36 EST    0.21   0.24   11    7   16  29.5  47.8 1030.8 14.3  1.012 -99.9 -99.99 -9.99
2019/11/13 08:42 EST    0.23   0.26   11   12   16  29.5  47.7 1031.0 14.2  1.012 -99.9 -99.99 -9.99
2019/11/13 08:48 EST    0.25   0.28   10    7   15  29.8  47.7 1031.1 14.2  1.012 -99.9 -99.99 -9.99
2019/11/13 08:54 EST    0.27   0.31   10   14   15  29.5  47.7 1031.0 14.2  1.012 -99.9 -99.99 -9.99
2019/11/13 09:00 EST    0.29   0.33   12  353   14  29.7  47.5 1031.2 14.1  1.012 -99.9 -99.99 -9.99
2019/11/13 09:06 EST    0.32   0.37    9   13   14  29.7  47.5 1031.1 14.0  1.012 -99.9 -99.99 -9.99
2019/11/13 09:12 EST    0.35   0.40    7  348   11  30.0  47.5 1031.1 14.1  1.012 -99.9 -99.99 -9.99
2019/11/13 09:18 EST    0.38   0.42   11  344   13  29.7  47.5 1031.2 14.1  1.012 -99.9 -99.99 -9.99
2019/11/13 09:24 EST    0.41   0.45    8    2   13  30.2  47.5 1031.3 14.1  1.012 -99.9 -99.99 -9.99
2019/11/13 09:30 EST    0.44   0.48    9  347   15  29.8  47.5 1031.4 14.1  1.012 -99.9 -99.99 -9.99
2019/11/13 09:36 EST    0.47   0.51   10  354   15  30.2  47.5 1031.3 14.2  1.012 -99.9 -99.99 -9.99
2019/11/13 09:42 EST    0.51   0.54    9  333   13  29.8  47.7 1031.3 14.2  1.012 -99.9 -99.99 -9.99
2019/11/13 09:48 EST    0.54   0.58    8  355   12  30.4  47.7 1031.4 14.3  1.012 -99.9 -99.99 -9.99
2019/11/13 09:54 EST    0.58   0.60    5    4    9  30.9  48.0 1031.4 14.2  1.012 -99.9 -99.99 -9.99
2019/11/13 10:00 EST    0.61   0.64    6    6   10  30.7  48.0 1031.4 14.3  1.012 -99.9 -99.99 -9.99
2019/11/13 10:06 EST    0.65   0.67   10  345   14  30.6  48.0 1031.4 14.3  1.012 -99.9 -99.99 -9.99
2019/11/13 10:12 EST    0.69   0.71    9  351   13  30.7  48.0 1031.5 14.4  1.012 -99.9 -99.99 -9.99
2019/11/13 10:18 EST    0.72   0.74    9  351   12  30.9  48.0 1031.5 14.5  1.012 -99.9 -99.99 -9.99
2019/11/13 10:24 EST    0.76   0.78    9  344   12  30.7  47.8 1031.6 14.5  1.012 -99.9 -99.99 -9.99
2019/11/13 10:30 EST    0.80   0.81    7  351   12  31.3  46.8 1031.5 14.4  1.012 -99.9 -99.99 -9.99
2019/11/13 10:36 EST    0.83   0.84    7  359   11  31.3  46.0 1031.4 14.4  1.012 -99.9 -99.99 -9.99
2019/11/13 10:42 EST    0.87   0.87    8  358   12  31.6  45.3 1031.5 14.4  1.012 -99.9 -99.99 -9.99
2019/11/13 10:48 EST    0.91   0.91   10  357   14  31.5  46.0 1031.4 14.6  1.012 -99.9 -99.99 -9.99
2019/11/13 10:54 EST    0.94   0.94    8    2   13  31.6  46.8 1031.3 14.4  1.012 -99.9 -99.99 -9.99
2019/11/13 11:00 EST    0.98   0.97    5   17    9  31.8  45.9 1031.2 14.4  1.012 -99.9 -99.99 -9.99
2019/11/13 11:06 EST    1.01   1.01    6   38    9  31.8  45.1 1031.2 14.4  1.012 -99.9 -99.99 -9.99
2019/11/13 11:12 EST    1.05   1.05   11  351   14  31.6  44.8 1031.2 14.5  1.012 -99.9 -99.99 -9.99
2019/11/13 11:18 EST    1.08   1.08    8  340   11  31.5  45.7 1031.3 14.4  1.012 -99.9 -99.99 -9.99
2019/11/13 11:24 EST    1.11   1.10    9  335   13  32.0  45.0 1031.4 14.5  1.012 -99.9 -99.99 -9.99
2019/11/13 11:30 EST    1.14   1.13   10  323   12  31.8  46.0 1031.3 14.5  1.012 -99.9 -99.99 -9.99
2019/11/13 11:36 EST    1.17   1.15    5  331    9  31.6  46.2 1031.2 14.5  1.012 -99.9 -99.99 -9.99
2019/11/13 11:42 EST    1.20   1.19    7  359   12  32.4  46.4 1031.0 14.5  1.012 -99.9 -99.99 -9.99
2019/11/13 11:48 EST    1.23   1.21    7  336   11  32.0  45.9 1030.8 14.4  1.012 -99.9 -99.99 -9.99
2019/11/13 11:54 EST    1.25   1.24    7  349   11  32.4  45.0 1030.7 14.4  1.012 -99.9 -99.99 -9.99
2019/11/13 12:00 EST    1.28   1.25    3  358    4  31.8  44.6 1030.4 14.5  1.012 -99.9 -99.99 -9.99
2019/11/13 12:06 EST    1.30   1.28    6   15   11  32.4  44.4 1030.4 14.5  1.012 -99.9 -99.99 -9.99
2019/11/13 12:12 EST    1.32   1.30    6    5    9  32.4  44.4 1030.3 14.5  1.012 -99.9 -99.99 -9.99
2019/11/13 12:18 EST    1.34   1.31    7  342   11  32.7  44.8 1030.5 14.5  1.012 -99.9 -99.99 -9.99
2019/11/13 12:24 EST    1.36   1.33    5   10    7  32.7  45.3 1030.6 14.4  1.012 -99.9 -99.99 -9.99
2019/11/13 12:30 EST    1.38   1.35    6  352    9  32.7  46.8 1030.5 14.4  1.012 -99.9 -99.99 -9.99
2019/11/13 12:36 EST    1.40   1.37   10  317   14  32.7  45.9 1030.6 14.4  1.012 -99.9 -99.99 -9.99
2019/11/13 12:42 EST    1.41   1.40    5  285    7  32.4  44.6 1030.3 14.5  1.012 -99.9 -99.99 -9.99
2019/11/13 12:48 EST    1.43   1.42    7  321   10  32.7  44.4 1030.2 14.5  1.012 -99.9 -99.99 -9.99
2019/11/13 12:54 EST    1.44   1.44    6  345    9  33.6  44.2 1030.2 14.5  1.012 -99.9 -99.99 -9.99
2019/11/13 13:00 EST    1.45   1.47    8  312   11  33.1  44.6 1030.3 14.5  1.012 -99.9 -99.99 -9.99
2019/11/13 13:06 EST    1.46   1.47    7  314    9  32.9  44.8 1030.3 14.5  1.012 -99.9 -99.99 -9.99
2019/11/13 13:12 EST    1.47   1.48    3    8    6  32.7  46.0 1030.0 14.4  1.012 -99.9 -99.99 -9.99
2019/11/13 13:18 EST    1.48   1.50    5  321    7  33.4  46.2 1029.9 14.4  1.012 -99.9 -99.99 -9.99
2019/11/13 13:24 EST    1.48   1.50    7    1   10  33.4  46.4 1030.0 14.4  1.012 -99.9 -99.99 -9.99
2019/11/13 13:30 EST    1.48   1.53    3  306    6  33.4  46.8 1030.0 14.4  1.012 -99.9 -99.99 -9.99
2019/11/13 13:36 EST    1.49   1.53    3  316    5  33.3  47.1 1030.0 14.3  1.012 -99.9 -99.99 -9.99
2019/11/13 13:42 EST    1.49   1.54    8   12   11  33.6  47.3 1029.9 14.3  1.012 -99.9 -99.99 -9.99
2019/11/13 13:48 EST    1.49   1.55    7  322    9  33.8  47.3 1030.0 14.3  1.012 -99.9 -99.99 -9.99
2019/11/13 13:54 EST    1.49   1.55    5  349    8  34.0  47.3 1030.0 14.2  1.012 -99.9 -99.99 -9.99
2019/11/13 14:00 EST    1.48   1.55    5   10    7  34.2  47.3 1029.8 14.3  1.012 -99.9 -99.99 -9.99
2019/11/13 14:06 EST    1.48   1.56    4  351    7  34.2  47.1 1029.6 14.3  1.012 -99.9 -99.99 -9.99
2019/11/13 14:12 EST    1.47   1.56    8  320   11  34.0  46.9 1029.6 14.3  1.012 -99.9 -99.99 -9.99
2019/11/13 14:18 EST    1.46   1.57    4  316    5  34.2  46.9 1029.7 14.3  1.012 -99.9 -99.99 -9.99
2019/11/13 14:24 EST    1.45   1.57    6  340    9  34.7  46.9 1029.7 14.3  1.012 -99.9 -99.99 -9.99
2019/11/13 14:30 EST    1.44   1.56    6  305    8  34.2  47.1 1029.9 14.3  1.012 -99.9 -99.99 -9.99
2019/11/13 14:36 EST    1.43   1.56    3  344    6  34.5  47.5 1029.9 14.2  1.012 -99.9 -99.99 -9.99
2019/11/13 14:42 EST    1.41   1.56    4    7    5  34.9  47.1 1029.9 14.2  1.012 -99.9 -99.99 -9.99
2019/11/13 14:48 EST    1.40   1.56    4  348    6  34.9  46.9 1030.0 14.4  1.012 -99.9 -99.99 -9.99
2019/11/13 14:54 EST    1.38   1.56    4  319    6  35.1  47.3 1030.0 14.3  1.012 -99.9 -99.99 -9.99
2019/11/13 15:00 EST    1.36   1.55    6  338    8  35.2  47.3 1029.9 14.3  1.012 -99.9 -99.99 -9.99
2019/11/13 15:06 EST    1.34   1.55    7  346   10  35.4  47.5 1030.0 14.3  1.012 -99.9 -99.99 -9.99
2019/11/13 15:12 EST    1.32   1.53    5  343    9  35.2  47.3 1030.0 14.3  1.012 -99.9 -99.99 -9.99
2019/11/13 15:18 EST    1.30   1.52    5  309    7  35.6  47.3 1029.9 14.3  1.012 -99.9 -99.99 -9.99
2019/11/13 15:24 EST    1.27   1.51    4  321    5  35.4  47.5 1029.8 14.3  1.012 -99.9 -99.99 -9.99
2019/11/13 15:30 EST    1.25   1.49    6  309    8  35.6  47.7 1030.1 14.3  1.012 -99.9 -99.99 -9.99
2019/11/13 15:36 EST    1.22   1.48    5  327    9  36.0  47.5 1030.0 14.3  1.012 -99.9 -99.99 -9.99
2019/11/13 15:42 EST    1.19   1.46    5  346    7  36.0  47.1 1029.9 14.4  1.012 -99.9 -99.99 -9.99
2019/11/13 15:48 EST    1.16   1.43    5  329    7  35.4  47.5 1029.9 14.3  1.012 -99.9 -99.99 -9.99
2019/11/13 15:54 EST    1.13   1.41    0  358    2  36.1  47.3 1029.8 14.4  1.012 -99.9 -99.99 -9.99
2019/11/13 16:00 EST    1.10   1.39    4  305    8  36.7  47.3 1029.9 14.4  1.012 -99.9 -99.99 -9.99
2019/11/13 16:06 EST    1.07   1.36    5  335    8  35.8  47.5 1030.0 14.4  1.012 -99.9 -99.99 -9.99
2019/11/13 16:12 EST    1.04   1.34    5  318    6  35.4  47.8 1029.9 14.4  1.012 -99.9 -99.99 -9.99
2019/11/13 16:18 EST    1.00   1.31    3  321    5  35.6  47.8 1029.8 14.4  1.012 -99.9 -99.99 -9.99
2019/11/13 16:24 EST    0.97   1.28    5  289    7  35.4  48.0 1029.9 14.4  1.012 -99.9 -99.99 -9.99
2019/11/13 16:30 EST    0.93   1.26    4  266    5  34.9  48.0 1029.8 14.4  1.012 -99.9 -99.99 -9.99
2019/11/13 16:36 EST    0.90   1.23    4  287    5  34.9  48.0 1029.9 14.4  1.012 -99.9 -99.99 -9.99
2019/11/13 16:42 EST    0.87   1.19    4  295    5  35.1  48.0 1029.9 14.4  1.012 -99.9 -99.99 -9.99
2019/11/13 16:48 EST    0.83   1.17    3  298    4  35.1  48.2 1029.7 14.3  1.012 -99.9 -99.99 -9.99
2019/11/13 16:54 EST    0.80   1.15    3  301    4  35.1  48.2 1029.6 14.3  1.012 -99.9 -99.99 -9.99
2019/11/13 17:00 EST    0.76   1.12    3  274    4  34.9  48.2 1029.8 14.3  1.012 -99.9 -99.99 -9.99
2019/11/13 17:06 EST    0.73   1.10    4  279    5  34.9  48.0 1029.8 14.3  1.012 -99.9 -99.99 -9.99
2019/11/13 17:12 EST    0.70   1.07    4  290    5  34.7  48.0 1029.8 14.2  1.012 -99.9 -99.99 -9.99
2019/11/13 17:18 EST    0.66   1.03    3  286    4  34.7  48.0 1029.6 14.1  1.012 -99.9 -99.99 -9.99
2019/11/13 17:24 EST    0.63   1.01    4  280    4  34.7  48.0 1029.7 14.2  1.012 -99.9 -99.99 -9.99
2019/11/13 17:30 EST    0.60   0.98    4  283    5  34.7  48.0 1029.8 14.2  1.012 -99.9 -99.99 -9.99
2019/11/13 17:36 EST    0.57   0.96    4  286    5  34.7  48.0 1029.9 14.2  1.012 -99.9 -99.99 -9.99
2019/11/13 17:42 EST    0.54   0.94    4  299    5  34.9  48.0 1030.0 14.3  1.012 -99.9 -99.99 -9.99
2019/11/13 17:48 EST    0.51   0.91    4  288    5  34.7  48.0 1030.1 14.3  1.012 -99.9 -99.99 -9.99
2019/11/13 17:54 EST    0.48   0.89    4  283    4  34.5  48.2 1030.1 14.2  1.012 -99.9 -99.99 -9.99
2019/11/13 18:00 EST    0.45   0.87    4  282    5  34.9  48.0 1030.2 14.3  1.012 -99.9 -99.99 -9.99
2019/11/13 18:06 EST    0.42   0.85    4  276    5  34.9  48.0 1030.2 14.3  1.012 -99.9 -99.99 -9.99
2019/11/13 18:12 EST    0.40   0.83    5  289    6  34.9  48.0 1030.2 14.2  1.012 -99.9 -99.99 -9.99
2019/11/13 18:18 EST    0.37   0.80    5  288    6  34.7  48.0 1030.3 14.2  1.012 -99.9 -99.99 -9.99
2019/11/13 18:24 EST    0.35   0.79    4  287    4  34.7  48.0 1030.3 14.2  1.012 -99.9 -99.99 -9.99
2019/11/13 18:30 EST    0.33   0.77    4  275    5  34.9  47.8 1030.3 14.2  1.012 -99.9 -99.99 -9.99
2019/11/13 18:36 EST    0.30   0.75    5  248    6  34.9  47.8 1030.3 14.2  1.012 -99.9 -99.99 -9.99
2019/11/13 18:42 EST    0.28   0.73    4  285    5  34.9  47.7 1030.3 14.1  1.012 -99.9 -99.99 -9.99
2019/11/13 18:48 EST    0.26   0.72    4  261    4  34.7  47.5 1030.3 14.1  1.012 -99.9 -99.99 -9.99
2019/11/13 18:54 EST    0.24   0.70    4  242    5  34.7  47.7 1030.2 14.1  1.012 -99.9 -99.99 -9.99
2019/11/13 19:00 EST    0.23   0.68    3  250    4  34.5  47.5 1030.3 14.1  1.012 -99.9 -99.99 -9.99
2019/11/13 19:06 EST    0.21   0.67    4  247    5  34.5  47.5 1030.5 14.1  1.012 -99.9 -99.99 -9.99
2019/11/13 19:12 EST    0.20   0.66    4  240    4  33.8  47.5 1030.4 14.1  1.012 -99.9 -99.99 -9.99
2019/11/13 19:18 EST    0.18   0.65    4  256    4  34.0  47.5 1030.5 14.1  1.012 -99.9 -99.99 -9.99
2019/11/13 19:24 EST    0.17   0.64    4  263    4  34.3  47.5 1030.7 14.1  1.012 -99.9 -99.99 -9.99
2019/11/13 19:30 EST    0.16   0.64    5  263    6  34.3  47.3 1030.8 14.1  1.012 -99.9 -99.99 -9.99
2019/11/13 19:36 EST    0.15   0.62    5  258    5  34.5  47.3 1030.8 14.0  1.012 -99.9 -99.99 -9.99
2019/11/13 19:42 EST    0.14   0.62    5  257    6  34.2  47.1 1030.9 14.0  1.012 -99.9 -99.99 -9.99
2019/11/13 19:48 EST    0.14   0.62    5  262    6  34.2  47.1 1030.9 13.9  1.012 -99.9 -99.99 -9.99
2019/11/13 19:54 EST    0.13   0.62    5  252    6  34.0  47.1 1030.7 14.0  1.012 -99.9 -99.99 -9.99
2019/11/13 20:00 EST    0.13   0.61    4  254    5  34.0  47.1 1030.6 13.9  1.012 -99.9 -99.99 -9.99
2019/11/13 20:06 EST    0.13   0.61    4  236    4  34.0  46.9 1030.5 14.0  1.012 -99.9 -99.99 -9.99
2019/11/13 20:12 EST    0.12   0.62    5  218    6  33.6  46.9 1030.5 14.0  1.012 -99.9 -99.99 -9.99
2019/11/13 20:18 EST    0.13   0.62    5  232    6  33.1  46.9 1030.7 14.0  1.012 -99.9 -99.99 -9.99
2019/11/13 20:24 EST    0.13   0.61    5  259    6  32.7  46.9 1030.8 13.9  1.012 -99.9 -99.99 -9.99
2019/11/13 20:30 EST    0.13   0.63    5  238    6  32.9  46.9 1030.8 14.0  1.012 -99.9 -99.99 -9.99
2019/11/13 20:36 EST    0.14   0.64    5  249    6  32.9  46.9 1030.9 14.0  1.012 -99.9 -99.99 -9.99
2019/11/13 20:42 EST    0.15   0.65    5  260    7  33.4  47.3 1031.1 14.0  1.012 -99.9 -99.99 -9.99
2019/11/13 20:48 EST    0.16   0.67    6  265    6  33.4  47.8 1031.2 14.1  1.012 -99.9 -99.99 -9.99
2019/11/13 20:54 EST    0.17   0.68    6  261    7  33.4  47.5 1031.4 14.0  1.012 -99.9 -99.99 -9.99
2019/11/13 21:00 EST    0.19   0.69    6  252    6  33.4  47.5 1031.3 13.9  1.012 -99.9 -99.99 -9.99
2019/11/13 21:06 EST    0.20   0.72    5  251    5  33.3  47.7 1031.3 14.0  1.012 -99.9 -99.99 -9.99
2019/11/13 21:12 EST    0.22   0.74    5  244    6  33.3  48.0 1031.2 14.1  1.012 -99.9 -99.99 -9.99
2019/11/13 21:18 EST    0.24   0.76    5  240    6  32.9  48.2 1031.2 14.1  1.012 -99.9 -99.99 -9.99
2019/11/13 21:24 EST    0.26   0.79    5  218    5  33.3  48.4 1031.1 14.1  1.012 -99.9 -99.99 -9.99
2019/11/13 21:30 EST    0.28   0.82    5  221    6  32.5  48.2 1031.1 14.2  1.012 -99.9 -99.99 -9.99
2019/11/13 21:36 EST    0.30   0.84    5  230    6  32.5  48.2 1031.2 14.2  1.012 -99.9 -99.99 -9.99
2019/11/13 21:42 EST    0.33   0.86    5  233    6  32.9  48.2 1031.1 14.2  1.012 -99.9 -99.99 -9.99
2019/11/13 21:48 EST    0.35   0.89    5  246    7  33.1  48.2 1031.3 14.1  1.012 -99.9 -99.99 -9.99
2019/11/13 21:54 EST    0.38   0.92    5  248    6  33.1  48.2 1031.2 14.1  1.012 -99.9 -99.99 -9.99
2019/11/13 22:00 EST    0.41   0.95    6  238    7  33.1  48.2 1031.3 14.1  1.012 -99.9 -99.99 -9.99
2019/11/13 22:06 EST    0.44   0.99    6  234    7  33.1  48.2 1031.3 14.0  1.012 -99.9 -99.99 -9.99
2019/11/13 22:12 EST    0.47   1.03    6  247    7  33.3  48.2 1031.3 14.0  1.012 -99.9 -99.99 -9.99
2019/11/13 22:18 EST    0.50   1.05    5  244    6  33.3  48.2 1031.3 14.0  1.012 -99.9 -99.99 -9.99
2019/11/13 22:24 EST    0.53   1.09    6  255    6  32.9  48.2 1031.4 14.1  1.012 -99.9 -99.99 -9.99
2019/11/13 22:30 EST    0.56   1.12    6  257    7  33.4  48.2 1031.5 14.0  1.012 -99.9 -99.99 -9.99
2019/11/13 22:36 EST    0.59   1.15    5  247    6  33.6  48.2 1031.6 14.0  1.012 -99.9 -99.99 -9.99
2019/11/13 22:42 EST    0.63   1.18    5  247    6  33.3  48.0 1031.6 13.9  1.012 -99.9 -99.99 -9.99
2019/11/13 22:48 EST    0.66   1.22    4  246    5  33.4  48.0 1031.5 13.9  1.012 -99.9 -99.99 -9.99
2019/11/13 22:54 EST    0.69   1.25    4  254    5  33.4  48.0 1031.6 13.9  1.012 -99.9 -99.99 -9.99
2019/11/13 23:00 EST    0.72   1.28    5  258    6  33.3  48.0 1031.6 13.9  1.012 -99.9 -99.99 -9.99
2019/11/13 23:06 EST    0.76   1.31    4  247    5  32.9  48.0 1031.6 13.7  1.011 -99.9 -99.99 -9.99
2019/11/13 23:12 EST    0.79   1.34    4  245    4  32.9  48.0 1031.5 13.6  1.011 -99.9 -99.99 -9.99
2019/11/13 23:18 EST    0.82   1.38    4  234    5  32.9  48.0 1031.4 13.6  1.011 -99.9 -99.99 -9.99
2019/11/13 23:24 EST    0.85   1.42    4  230    4  32.5  48.0 1031.2 13.6  1.011 -99.9 -99.99 -9.99
2019/11/13 23:30 EST    0.88   1.46    4  234    4  32.4  48.0 1031.1 13.5  1.011 -99.9 -99.99 -9.99
2019/11/13 23:36 EST    0.91   1.48    3  213    4  32.7  48.2 1031.0 13.4  1.011 -99.9 -99.99 -9.99
2019/11/13 23:42 EST    0.94   1.52    4  216    5  32.4  48.2 1031.0 13.4  1.011 -99.9 -99.99 -9.99
2019/11/13 23:48 EST    0.97   1.55    4  222    5  32.2  48.2 1031.0 13.4  1.011 -99.9 -99.99 -9.99
2019/11/13 23:54 EST    0.99   1.57    4  227    5  32.4  48.0 1031.0 13.5  1.011 -99.9 -99.99 -9.99
2019/11/14 00:00 EST    1.02   1.60    4  228    5  32.5  47.8 1031.0 13.5  1.011 -99.9 -99.99 -9.99
2019/11/14 00:06 EST    1.04   1.63    5  225    6  32.7  47.8 1031.0 13.6  1.011 -99.9 -99.99 -9.99
2019/11/14 00:12 EST    1.07   1.65    4  224    5  32.7  47.8 1031.1 13.7  1.011 -99.9 -99.99 -9.99
2019/11/14 00:18 EST    1.09   1.68    4  223    5  32.7  47.7 1030.9 13.8  1.011 -99.9 -99.99 -9.99
2019/11/14 00:24 EST    1.11   1.69    5  205    5  32.5  47.7 1030.8 13.7  1.011 -99.9 -99.99 -9.99
2019/11/14 00:30 EST    1.13   1.71    5  214    6  32.5  47.8 1030.8 13.6  1.011 -99.9 -99.99 -9.99
2019/11/14 00:36 EST    1.15   1.73    5  218    6  32.4  47.8 1030.8 13.7  1.011 -99.9 -99.99 -9.99
2019/11/14 00:42 EST    1.16   1.75    5  213    6  32.4  47.7 1030.8 13.7  1.011 -99.9 -99.99 -9.99
2019/11/14 00:48 EST    1.18   1.77    5  215    5  32.5  47.8 1030.9 13.7  1.011 -99.9 -99.99 -9.99
2019/11/14 00:54 EST    1.20   1.79    4  215    5  32.4  47.8 1030.8 13.7  1.011 -99.9 -99.99 -9.99
2019/11/14 01:00 EST    1.21   1.81    4  232    5  32.4  47.8 1030.9 13.6  1.011 -99.9 -99.99 -9.99
2019/11/14 01:06 EST    1.22   1.83    3  246    4  32.2  47.8 1030.8 13.6  1.011 -99.9 -99.99 -9.99
2019/11/14 01:12 EST    1.23   1.84    2  262    3  32.5  47.8 1030.8 13.6  1.011 -99.9 -99.99 -9.99
2019/11/14 01:18 EST    1.24   1.85    3  233    4  32.5  47.8 1030.9 13.6  1.011 -99.9 -99.99 -9.99
2019/11/14 01:24 EST    1.25   1.86    4  234    5  32.0  47.8 1030.7 13.6  1.011 -99.9 -99.99 -9.99
2019/11/14 01:30 EST    1.25   1.87    4  245    5  32.2  47.7 1030.7 13.6  1.011 -99.9 -99.99 -9.99
2019/11/14 01:36 EST    1.26   1.88    4  239    4  32.0  47.7 1030.8 13.6  1.011 -99.9 -99.99 -9.99
2019/11/14 01:42 EST    1.26   1.90    3  262    4  32.0  47.7 1030.8 13.5  1.011 -99.9 -99.99 -9.99
2019/11/14 01:48 EST    1.27   1.90    3  257    4  32.2  47.8 1030.8 13.5  1.011 -99.9 -99.99 -9.99
2019/11/14 01:54 EST    1.27   1.90    3  253    4  32.2  47.8 1030.8 13.6  1.011 -99.9 -99.99 -9.99
2019/11/14 02:00 EST    1.27   1.91    3  249    4  31.8  47.8 1030.7 13.5  1.011 -99.9 -99.99 -9.99
2019/11/14 02:06 EST    1.27   1.90    3  231    4  31.8  47.8 1030.6 13.5  1.011 -99.9 -99.99 -9.99
2019/11/14 02:12 EST    1.26   1.89    3  236    4  31.6  47.8 1030.5 13.4  1.011 -99.9 -99.99 -9.99
2019/11/14 02:18 EST    1.26   1.89    3  237    4  31.6  47.8 1030.4 13.4  1.011 -99.9 -99.99 -9.99
2019/11/14 02:24 EST    1.26   1.88    3  221    4  31.5  47.8 1030.3 13.4  1.011 -99.9 -99.99 -9.99
2019/11/14 02:30 EST    1.25   1.87    3  264    4  31.3  47.8 1030.3 13.4  1.011 -99.9 -99.99 -9.99
2019/11/14 02:36 EST    1.24   1.87    4  238    4  31.1  47.8 1030.2 13.4  1.011 -99.9 -99.99 -9.99
2019/11/14 02:42 EST    1.23   1.85    3  229    3  31.5  47.8 1030.1 13.4  1.011 -99.9 -99.99 -9.99
2019/11/14 02:48 EST    1.22   1.84    3  234    4  31.5  48.0 1030.1 13.4  1.011 -99.9 -99.99 -9.99
2019/11/14 02:54 EST    1.21   1.82    4  235    4  31.3  48.2 1030.2 13.3  1.011 -99.9 -99.99 -9.99
2019/11/14 03:00 EST    1.19   1.80    4  234    4  31.5  48.2 1030.0 13.3  1.011 -99.9 -99.99 -9.99
2019/11/14 03:06 EST    1.18   1.78    4  245    4  31.1  48.2 1030.1 13.3  1.011 -99.9 -99.99 -9.99
2019/11/14 03:12 EST    1.16   1.76    4  244    4  31.5  48.4 1030.1 13.2  1.011 -99.9 -99.99 -9.99
2019/11/14 03:18 EST    1.15   1.73    4  266    4  31.8  48.4 1030.0 13.3  1.011 -99.9 -99.99 -9.99
2019/11/14 03:24 EST    1.13   1.71    4  269    5  31.3  48.4 1030.2 13.2  1.011 -99.9 -99.99 -9.99
2019/11/14 03:30 EST    1.11   1.69    4  264    5  30.9  48.2 1030.3 13.3  1.011 -99.9 -99.99 -9.99
2019/11/14 03:36 EST    1.08   1.66    4  260    5  31.3  47.7 1030.3 13.6  1.011 -99.9 -99.99 -9.99
2019/11/14 03:42 EST    1.06   1.62    4  259    5  31.1  47.3 1030.3 13.6  1.011 -99.9 -99.99 -9.99
2019/11/14 03:48 EST    1.04   1.60    5  260    5  31.1  47.3 1030.3 13.6  1.011 -99.9 -99.99 -9.99
2019/11/14 03:54 EST    1.01   1.57    4  245    5  30.7  47.3 1030.3 13.7  1.011 -99.9 -99.99 -9.99
2019/11/14 04:00 EST    0.99   1.55    4  258    5  30.7  47.3 1030.3 13.8  1.012 -99.9 -99.99 -9.99
2019/11/14 04:06 EST    0.96   1.52    4  263    5  30.9  47.1 1030.3 13.8  1.012 -99.9 -99.99 -9.99
2019/11/14 04:12 EST    0.93   1.48    4  261    5  30.9  47.3 1030.4 13.7  1.011 -99.9 -99.99 -9.99
2019/11/14 04:18 EST    0.90   1.44    4  274    5  30.9  47.7 1030.4 13.4  1.011 -99.9 -99.99 -9.99
2019/11/14 04:24 EST    0.88   1.42    4  251    5  30.6  47.3 1030.3 13.6  1.011 -99.9 -99.99 -9.99
2019/11/14 04:30 EST    0.85   1.38    4  244    5  30.6  47.1 1030.2 13.7  1.011 -99.9 -99.99 -9.99
2019/11/14 04:36 EST    0.82   1.34    4  250    4  30.7  47.3 1030.2 13.8  1.011 -99.9 -99.99 -9.99
2019/11/14 04:42 EST    0.78   1.32    3  240    4  30.6  47.3 1030.2 13.9  1.012 -99.9 -99.99 -9.99
2019/11/14 04:48 EST    0.75   1.28    3  264    4  30.6  47.5 1030.3 14.0  1.012 -99.9 -99.99 -9.99
2019/11/14 04:54 EST    0.72   1.25    3  265    4  30.7  47.5 1030.2 14.1  1.012 -99.9 -99.99 -9.99
2019/11/14 05:00 EST    0.69   1.22    3  251    4  30.7  47.5 1030.2 14.1  1.012 -99.9 -99.99 -9.99
2019/11/14 05:06 EST    0.66   1.19    4  248    5  30.7  47.3 1030.2 14.1  1.012 -99.9 -99.99 -9.99
2019/11/14 05:12 EST    0.63   1.16    4  245    5  30.6  47.3 1030.2 14.1  1.012 -99.9 -99.99 -9.99
2019/11/14 05:18 EST    0.60   1.13    4  243    5  30.4  47.5 1030.3 14.1  1.012 -99.9 -99.99 -9.99
2019/11/14 05:24 EST    0.57   1.10    4  242    5  30.2  47.3 1030.3 14.1  1.012 -99.9 -99.99 -9.99
2019/11/14 05:30 EST    0.54   1.06    4  249    5  30.6  47.3 1030.4 14.0  1.012 -99.9 -99.99 -9.99
2019/11/14 05:36 EST    0.51   1.04    4  262    5  30.6  47.1 1030.5 14.0  1.012 -99.9 -99.99 -9.99
2019/11/14 05:42 EST    0.48   1.02    4  254    5  30.6  47.3 1030.5 13.9  1.012 -99.9 -99.99 -9.99
2019/11/14 05:48 EST    0.45   0.98    3  231    4  30.7  47.5 1030.4 13.9  1.012 -99.9 -99.99 -9.99
2019/11/14 05:54 EST    0.43   0.95    3  234    5  30.4  47.3 1030.3 13.9  1.012 -99.9 -99.99 -9.99
2019/11/14 06:00 EST    0.40   0.93    3  255    4  30.2  47.3 1030.4 13.8  1.012 -99.9 -99.99 -9.99
2019/11/14 06:06 EST    0.37   0.90    3  241    4  30.2  47.3 1030.5 13.8  1.012 -99.9 -99.99 -9.99
2019/11/14 06:12 EST    0.35   0.88    3  233    3  30.2  47.1 1030.3 13.9  1.012 -99.9 -99.99 -9.99
2019/11/14 06:18 EST    0.33   0.85    3  210    4  30.2  47.1 1030.4 13.9  1.012 -99.9 -99.99 -9.99
2019/11/14 06:24 EST    0.30   0.82    4  239    5  29.8  46.9 1030.5 14.0  1.012 -99.9 -99.99 -9.99
2019/11/14 06:30 EST    0.28   0.81    4  249    4  29.5  46.9 1030.5 14.0  1.012 -99.9 -99.99 -9.99
2019/11/14 06:36 EST    0.26   0.79    3  264    4  30.2  46.9 1030.6 14.0  1.012 -99.9 -99.99 -9.99
2019/11/14 06:42 EST    0.24   0.77    4  255    5  30.4  47.1 1030.6 13.8  1.012 -99.9 -99.99 -9.99
2019/11/14 06:48 EST    0.22   0.74    3  246    4  30.6  47.1 1030.6 13.8  1.012 -99.9 -99.99 -9.99
2019/11/14 06:54 EST    0.21   0.73    4  249    4  30.4  46.9 1030.7 13.8  1.012 -99.9 -99.99 -9.99
2019/11/14 07:00 EST    0.19   0.71    4  243    4  30.0  46.8 1030.8 13.8  1.012 -99.9 -99.99 -9.99
2019/11/14 07:06 EST    0.18   0.69    4  250    4  30.4  46.4 1030.8 13.8  1.012 -99.9 -99.99 -9.99
2019/11/14 07:12 EST    0.16   0.67    3  254    4  30.6  46.2 1031.0 13.8  1.012 -99.9 -99.99 -9.99
2019/11/14 07:18 EST    0.15   0.65    4  262    5  30.7  46.0 1031.1 13.8  1.012 -99.9 -99.99 -9.99
2019/11/14 07:24 EST    0.14   0.63    4  265    5  31.1  46.0 1031.1 13.8  1.012 -99.9 -99.99 -9.99
2019/11/14 07:30 EST    0.13   0.62    5  260    5  31.1  45.9 1031.2 13.8  1.012 -99.9 -99.99 -9.99
2019/11/14 07:36 EST    0.12   0.61    4  275    5  31.3  45.9 1031.3 13.7  1.012 -99.9 -99.99 -9.99
2019/11/14 07:42 EST    0.11   0.60    5  281    6  31.5  45.9 1031.5 13.7  1.012 -99.9 -99.99 -9.99
2019/11/14 07:48 EST    0.11   0.59    5  283    6  31.3  45.9 1031.5 13.7  1.012 -99.9 -99.99 -9.99
2019/11/14 07:54 EST    0.10   0.58    5  289    6  31.8  46.0 1031.5 13.7  1.012 -99.9 -99.99 -9.99
2019/11/14 08:00 EST    0.10   0.57    5  288    6  32.0  46.0 1031.4 13.7  1.012 -99.9 -99.99 -9.99
2019/11/14 08:06 EST    0.10   0.57    4  286    5  32.2  46.4 1031.3 13.7  1.012 -99.9 -99.99 -9.99
2019/11/14 08:12 EST    0.10   0.57    4  284    6  32.4  46.6 1031.4 13.7  1.011 -99.9 -99.99 -9.99
2019/11/14 08:18 EST    0.10   0.57    4  278    5  32.5  46.4 1031.4 13.6  1.011 -99.9 -99.99 -9.99
2019/11/14 08:24 EST    0.11   0.57    4  277    6  32.5  46.0 1031.5 13.7  1.011 -99.9 -99.99 -9.99
2019/11/14 08:30 EST    0.11   0.58    4  275    4  32.7  46.4 1031.5 13.7  1.011 -99.9 -99.99 -9.99
2019/11/14 08:36 EST    0.12   0.58    3  277    4  32.9  46.9 1031.4 13.4  1.011 -99.9 -99.99 -9.99
2019/11/14 08:42 EST    0.13   0.59    4  270    5  32.9  46.8 1031.4 13.5  1.011 -99.9 -99.99 -9.99
2019/11/14 08:48 EST    0.14   0.61    4  266    5  33.3  46.8 1031.5 13.6  1.011 -99.9 -99.99 -9.99
2019/11/14 08:54 EST    0.15   0.62    4  280    5  33.8  47.1 1031.3 13.6  1.011 -99.9 -99.99 -9.99
2019/11/14 09:00 EST    0.16   0.63    5  266    6  34.2  47.3 1031.4 13.6  1.011 -99.9 -99.99 -9.99
2019/11/14 09:06 EST    0.18   0.65    6  262    7  34.0  47.3 1031.4 13.7  1.011 -99.9 -99.99 -9.99
2019/11/14 09:12 EST    0.19   0.66    5  263    6  34.0  47.3 1031.2 13.7  1.011 -99.9 -99.99 -9.99
2019/11/14 09:18 EST    0.21   0.67    4  259    5  34.3  47.3 1031.3 13.7  1.011 -99.9 -99.99 -9.99
2019/11/14 09:24 EST    0.23   0.70    4  275    5  35.1  47.5 1031.5 13.6  1.011 -99.9 -99.99 -9.99
2019/11/14 09:30 EST    0.25   0.73    5  276    7  35.1  47.3 1031.6 13.7  1.011 -99.9 -99.99 -9.99
2019/11/14 09:36 EST    0.28   0.75    5  259    6  35.4  47.3 1031.5 13.7  1.011 -99.9 -99.99 -9.99
2019/11/14 09:42 EST    0.30   0.78    6  253    7  36.1  47.3 1031.5 13.7  1.011 -99.9 -99.99 -9.99
2019/11/14 09:48 EST    0.33   0.81    4  269    5  36.7  47.3 1031.4 13.7  1.011 -99.9 -99.99 -9.99
2019/11/14 09:54 EST    0.36   0.84    4  238    6  38.1  47.3 1031.4 13.7  1.011 -99.9 -99.99 -9.99
2019/11/14 10:00 EST    0.38   0.87    6  229    7  39.0  47.3 1031.3 13.6  1.011 -99.9 -99.99 -9.99
2019/11/14 10:06 EST    0.42   0.90    6  235    8  39.2  47.3 1031.3 13.7  1.011 -99.9 -99.99 -9.99
2019/11/14 10:12 EST    0.45   0.94    4  217    6  39.6  47.1 1031.3 13.8  1.012 -99.9 -99.99 -9.99
2019/11/14 10:18 EST    0.48   0.98    7  207    8  38.8  47.1 1031.0 13.9  1.012 -99.9 -99.99 -9.99
2019/11/14 10:24 EST    0.51   1.01    7  197    9  39.0  47.1 1030.9 13.9  1.012 -99.9 -99.99 -9.99
2019/11/14 10:30 EST    0.55   1.05    5  210    7  39.6  47.1 1030.7 13.9  1.012 -99.9 -99.99 -9.99
2019/11/14 10:36 EST    0.58   1.09    5  183    7  39.4  47.3 1030.4 13.8  1.012 -99.9 -99.99 -9.99
2019/11/14 10:42 EST    0.62   1.13    7  196    8  39.7  47.3 1030.2 13.8  1.012 -99.9 -99.99 -9.99
2019/11/14 10:48 EST    0.66   1.16    6  195    8  40.1  47.3 1030.1 13.8  1.011 -99.9 -99.99 -9.99
2019/11/14 10:54 EST    0.69   1.20    6  188    7  40.1  47.3 1029.9 13.8  1.011 -99.9 -99.99 -9.99
2019/11/14 11:00 EST    0.73   1.24    6  190    8  40.8  47.3 1029.9 13.7  1.011 -99.9 -99.99 -9.99
2019/11/14 11:06 EST    0.77   1.28    6  187   10  40.8  47.3 1029.7 13.8  1.011 -99.9 -99.99 -9.99
2019/11/14 11:12 EST    0.81   1.31    6  188    8  41.0  47.3 1029.7 13.8  1.012 -99.9 -99.99 -9.99
2019/11/14 11:18 EST    0.84   1.34    4  189    7  41.2  47.3 1029.7 13.8  1.012 -99.9 -99.99 -9.99
2019/11/14 11:24 EST    0.88   1.38    4  200    5  41.5  47.5 1029.5 13.7  1.011 -99.9 -99.99 -9.99
2019/11/14 11:30 EST    0.92   1.43    6  224    8  42.1  47.3 1029.7 13.8  1.012 -99.9 -99.99 -9.99
2019/11/14 11:36 EST    0.95   1.47    3  207    6  41.7  47.3 1029.5 13.8  1.012 -99.9 -99.99 -9.99
2019/11/14 11:42 EST    0.99   1.51    2  186    3  42.1  47.3 1029.3 13.8  1.012 -99.9 -99.99 -9.99
2019/11/14 11:48 EST    1.02   1.53    3  187    5  42.1  47.5 1029.0 13.8  1.011 -99.9 -99.99 -9.99
2019/11/14 11:54 EST    1.06   1.56    7  199    8  42.3  48.0 1028.9 13.5  1.011 -99.9 -99.99 -9.99
2019/11/14 12:00 EST    1.09   1.60    5  228    6  43.0  47.8 1029.0 13.7  1.011 -99.9 -99.99 -9.99
2019/11/14 12:06 EST    1.12   1.62    5  231    6  43.0  47.8 1029.0 13.7  1.011 -99.9 -99.99 -9.99
2019/11/14 12:12 EST    1.15   1.64    6  220    8  43.2  47.7 1028.8 13.7  1.011 -99.9 -99.99 -9.99
2019/11/14 12:18 EST    1.18   1.68    7  220    8  43.3  47.7 1028.8 13.6  1.011 -99.9 -99.99 -9.99
2019/11/14 12:24 EST    1.21   1.71    5  212    7  43.2  47.7 1028.7 13.6  1.011 -99.9 -99.99 -9.99
2019/11/14 12:30 EST    1.24   1.74    8  216    9  43.5  47.3 1028.5 13.7  1.011 -99.9 -99.99 -9.99
2019/11/14 12:36 EST    1.26   1.76    6  224    7  43.7  47.1 1028.3 13.7  1.011 -99.9 -99.99 -9.99
2019/11/14 12:42 EST    1.29   1.77    6  221    8  43.9  47.1 1028.3 13.7  1.011 -99.9 -99.99 -9.99
2019/11/14 12:48 EST    1.31   1.79    7  212    9  44.1  47.3 1028.2 13.7  1.011 -99.9 -99.99 -9.99
2019/11/14 12:54 EST    1.33   1.83    4  223    6  44.4  47.5 1028.2 13.6  1.011 -99.9 -99.99 -9.99
2019/11/14 13:00 EST    1.35   1.86    5  221    8  44.6  47.5 1028.0 13.6  1.011 -99.9 -99.99 -9.99
2019/11/14 13:06 EST    1.37   1.87    6  224    8  45.0  47.7 1027.9 13.6  1.011 -99.9 -99.99 -9.99
2019/11/14 13:12 EST    1.39   1.90    7  224    9  45.0  48.0 1028.0 13.4  1.011 -99.9 -99.99 -9.99
2019/11/14 13:18 EST    1.41   1.91    6  217    8  45.0  48.2 1027.9 13.4  1.011 -99.9 -99.99 -9.99
2019/11/14 13:24 EST    1.42   1.91    7  218    8  45.3  48.2 1027.9 13.3  1.011 -99.9 -99.99 -9.99
2019/11/14 13:30 EST    1.43   1.91    9  208   10  45.1  48.2 1027.6 13.3  1.011 -99.9 -99.99 -9.99
2019/11/14 13:36 EST    1.44   1.93    9  201   11  45.1  48.6 1027.4 13.3  1.011 -99.9 -99.99 -9.99
2019/11/14 13:42 EST    1.45   1.95    8  210   10  45.1  48.7 1027.3 13.3  1.011 -99.9 -99.99 -9.99
2019/11/14 13:48 EST    1.46   1.96    8  208   10  45.0  48.7 1027.1 13.3  1.011 -99.9 -99.99 -9.99
2019/11/14 13:54 EST    1.47   1.96    7  214    8  45.3  48.9 1027.0 13.2  1.011 -99.9 -99.99 -9.99
2019/11/14 14:00 EST    1.48   1.96    7  206    8  45.1  48.9 1026.9 13.2  1.011 -99.9 -99.99 -9.99
2019/11/14 14:06 EST    1.48   1.97    8  179    9  45.3  48.9 1026.8 13.2  1.011 -99.9 -99.99 -9.99
2019/11/14 14:12 EST    1.48   1.97    9  197   11  45.5  48.9 1026.7 13.1  1.011 -99.9 -99.99 -9.99
2019/11/14 14:18 EST    1.48   1.96    9  203   11  45.7  49.1 1026.8 13.0  1.011 -99.9 -99.99 -9.99
2019/11/14 14:24 EST    1.48   1.98   10  198   11  45.7  49.1 1026.7 13.0  1.011 -99.9 -99.99 -9.99
2019/11/14 14:30 EST    1.48   2.00    8  188   10  46.0  49.1 1026.7 13.0  1.011 -99.9 -99.99 -9.99
2019/11/14 14:36 EST    1.48   2.01    9  202   10  45.9  49.1 1026.8 13.0  1.011 -99.9 -99.99 -9.99
2019/11/14 14:42 EST    1.47   2.00    9  216   11  45.9  49.1 1026.9 13.0  1.011 -99.9 -99.99 -9.99
2019/11/14 14:48 EST    1.47   1.99    7  206    9  45.7  49.1 1026.9 13.0  1.011 -99.9 -99.99 -9.99
2019/11/14 14:54 EST    1.46   2.00    6  235    9  45.9  49.3 1027.0 12.9  1.011 -99.9 -99.99 -9.99
2019/11/14 15:00 EST    1.45   1.98    6  218    8  46.2  49.1 1027.0 13.0  1.011 -99.9 -99.99 -9.99
2019/11/14 15:06 EST    1.44   1.98    7  210    9  45.9  49.1 1027.0 13.0  1.011 -99.9 -99.99 -9.99
2019/11/14 15:12 EST    1.43   1.98    8  238   10  45.9  49.1 1027.1 13.0  1.011 -99.9 -99.99 -9.99
2019/11/14 15:18 EST    1.42   1.97    6  232    8  45.9  49.1 1027.1 13.0  1.011 -99.9 -99.99 -9.99
2019/11/14 15:24 EST    1.40   1.96    7  219    8  45.9  49.1 1027.2 13.0  1.011 -99.9 -99.99 -9.99
2019/11/14 15:30 EST    1.38   1.93    6  215    8  45.7  49.3 1027.0 13.0  1.011 -99.9 -99.99 -9.99
2019/11/14 15:36 EST    1.37   1.91    5  232    7  45.9  49.3 1027.0 13.0  1.011 -99.9 -99.99 -9.99
2019/11/14 15:42 EST    1.35   1.90    6  231    8  45.7  49.5 1027.0 13.0  1.011 -99.9 -99.99 -9.99
2019/11/14 15:48 EST    1.33   1.89    5  234    7  45.7  49.5 1027.0 13.0  1.011 -99.9 -99.99 -9.99
2019/11/14 15:54 EST    1.30   1.87    4  217    6  45.7  49.5 1026.9 13.0  1.011 -99.9 -99.99 -9.99
2019/11/14 16:00 EST    1.28   1.86    4  230    5  45.9  49.6 1026.9 13.0  1.011 -99.9 -99.99 -9.99
2019/11/14 16:06 EST    1.26   1.83    4  215    5  45.7  49.6 1026.9 13.0  1.011 -99.9 -99.99 -9.99
2019/11/14 16:12 EST    1.23   1.80    4  217    6  45.9  49.6 1026.9 13.0  1.011 -99.9 -99.99 -9.99
2019/11/14 16:18 EST    1.20   1.77    4  231    5  45.7  49.6 1026.9 13.0  1.011 -99.9 -99.99 -9.99
2019/11/14 16:24 EST    1.17 -99.99 -999 -999 -999 -99.9 -99.9 -999.9 -9.9 -9.999 -99.9 -99.99 -9.99
2019/11/14 16:30 EST    1.15 -99.99 -999 -999 -999 -99.9 -99.9 -999.9 -9.9 -9.999 -99.9 -99.99 -9.99
2019/11/14 16:36 EST    1.12 -99.99 -999 -999 -999 -99.9 -99.9 -999.9 -9.9 -9.999 -99.9 -99.99 -9.99